BAW451 KLAX-EGCC
Flight info
| Callsign | BAW451 |
|---|---|
| Flight time | 10h 18m |
| Altitude | 33000 |
| Route | DOTSS2 CLEEE DCT PKE DCT KA30O DCT KD36Q DCT KD45U/N0495F350 DCT KD57A DCT KP69G DCT KG75K DCT BAE DCT ODAXY DCT 4630N08000W DCT MOFAT/N0491F370 DCT 52N065W DCT JANJO/M085F380 NATT KESIX/N0489F390 DCT MIMKU DCT MAKUX |
| Aircraft | A35K/H-SDE2E3GHIJ3J4J5LM1ORWXY/LB1D1 |
Departure
| Time | 2026-05-06 22:10 |
|---|---|
| Airport | Los Angeles International Airport (KLAX) |
Arrival
| Time | 2026-05-07 08:28 |
|---|---|
| Airport | Manchester Airport (EGCC) |
| Time | Latitude | Longitude | Altitude | Speed | Heading |
|---|---|---|---|---|---|
| 2026-05-06 21:32 | 33.94090 | -118.40924 | 132 ft | 0 kts | 264° |
| 2026-05-06 21:58 | 33.94091 | -118.40922 | 131 ft | 2 kts | 264° |
| 2026-05-06 21:58 | 33.94092 | -118.40917 | 131 ft | 0 kts | 274° |
| 2026-05-06 21:58 | 33.94092 | -118.40889 | 131 ft | 4 kts | 262° |
| 2026-05-06 21:58 | 33.94096 | -118.40860 | 131 ft | 4 kts | 246° |
| 2026-05-06 21:59 | 33.94104 | -118.40844 | 129 ft | 4 kts | 204° |
| 2026-05-06 21:59 | 33.94125 | -118.40839 | 130 ft | 4 kts | 176° |
| 2026-05-06 21:59 | 33.94142 | -118.40841 | 131 ft | 2 kts | 172° |
| 2026-05-06 22:02 | 33.94135 | -118.40840 | 131 ft | 2 kts | 172° |
| 2026-05-06 22:02 | 33.94114 | -118.40836 | 126 ft | 4 kts | 173° |
| 2026-05-06 22:02 | 33.94081 | -118.40831 | 122 ft | 6 kts | 173° |
| 2026-05-06 22:02 | 33.94035 | -118.40824 | 129 ft | 7 kts | 173° |
| 2026-05-06 22:03 | 33.93978 | -118.40816 | 129 ft | 9 kts | 173° |
| 2026-05-06 22:03 | 33.93912 | -118.40806 | 127 ft | 10 kts | 169° |
| 2026-05-06 22:03 | 33.93877 | -118.40768 | 128 ft | 7 kts | 140° |
| 2026-05-06 22:03 | 33.93836 | -118.40732 | 124 ft | 8 kts | 141° |
| 2026-05-06 22:04 | 33.93813 | -118.40683 | 124 ft | 7 kts | 106° |
| 2026-05-06 22:04 | 33.93815 | -118.40625 | 128 ft | 8 kts | 85° |
| 2026-05-06 22:04 | 33.93821 | -118.40558 | 124 ft | 9 kts | 84° |
| 2026-05-06 22:04 | 33.93829 | -118.40477 | 127 ft | 10 kts | 82° |
| 2026-05-06 22:05 | 33.93839 | -118.40386 | 126 ft | 12 kts | 83° |
| 2026-05-06 22:05 | 33.93850 | -118.40284 | 131 ft | 13 kts | 82° |
| 2026-05-06 22:05 | 33.93861 | -118.40172 | 125 ft | 14 kts | 84° |
| 2026-05-06 22:05 | 33.93873 | -118.40055 | 131 ft | 15 kts | 82° |
| 2026-05-06 22:06 | 33.93886 | -118.39928 | 127 ft | 16 kts | 83° |
| 2026-05-06 22:06 | 33.93900 | -118.39793 | 124 ft | 17 kts | 83° |
| 2026-05-06 22:06 | 33.93914 | -118.39650 | 131 ft | 18 kts | 83° |
| 2026-05-06 22:06 | 33.93929 | -118.39502 | 131 ft | 18 kts | 83° |
| 2026-05-06 22:07 | 33.93945 | -118.39347 | 128 ft | 19 kts | 82° |
| 2026-05-06 22:07 | 33.93962 | -118.39185 | 125 ft | 20 kts | 83° |
| 2026-05-06 22:07 | 33.93980 | -118.39017 | 131 ft | 21 kts | 83° |
| 2026-05-06 22:07 | 33.93997 | -118.38845 | 131 ft | 21 kts | 83° |
| 2026-05-06 22:08 | 33.94015 | -118.38667 | 124 ft | 22 kts | 83° |
| 2026-05-06 22:08 | 33.94033 | -118.38484 | 129 ft | 22 kts | 83° |
| 2026-05-06 22:08 | 33.94040 | -118.38361 | 123 ft | 3 kts | 116° |
| 2026-05-06 22:08 | 33.94024 | -118.38343 | 129 ft | 4 kts | 139° |
| 2026-05-06 22:09 | 33.94000 | -118.38331 | 131 ft | 4 kts | 169° |
| 2026-05-06 22:09 | 33.93968 | -118.38336 | 128 ft | 5 kts | 218° |
| 2026-05-06 22:09 | 33.93947 | -118.38392 | 126 ft | 10 kts | 256° |
| 2026-05-06 22:09 | 33.93930 | -118.38564 | 131 ft | 45 kts | 263° |
| 2026-05-06 22:10 | 33.93866 | -118.39180 | 124 ft | 105 kts | 264° |
| 2026-05-06 22:10 | 33.93745 | -118.40370 | 138 ft | 179 kts | 263° |
| 2026-05-06 22:10 | 33.93573 | -118.41982 | 603 ft | 193 kts | 262° |
| 2026-05-06 22:10 | 33.93403 | -118.43503 | 1388 ft | 178 kts | 263° |
| 2026-05-06 22:11 | 33.93242 | -118.45040 | 1664 ft | 193 kts | 261° |
| 2026-05-06 22:11 | 33.92714 | -118.46619 | 1841 ft | 215 kts | 236° |
| 2026-05-06 22:11 | 33.91765 | -118.48133 | 2027 ft | 239 kts | 231° |
| 2026-05-06 22:11 | 33.90695 | -118.49718 | 2457 ft | 251 kts | 231° |
| 2026-05-06 22:12 | 33.89553 | -118.51343 | 3089 ft | 255 kts | 229° |
| 2026-05-06 22:12 | 33.88382 | -118.52968 | 3741 ft | 259 kts | 229° |
| 2026-05-06 22:12 | 33.87161 | -118.54576 | 4368 ft | 262 kts | 223° |
| 2026-05-06 22:12 | 33.85602 | -118.55718 | 5008 ft | 266 kts | 198° |
| 2026-05-06 22:13 | 33.83756 | -118.55916 | 5651 ft | 268 kts | 172° |
| 2026-05-06 22:13 | 33.81913 | -118.55475 | 6304 ft | 271 kts | 167° |
| 2026-05-06 22:13 | 33.80092 | -118.54947 | 6934 ft | 274 kts | 167° |
| 2026-05-06 22:13 | 33.78222 | -118.54413 | 7577 ft | 277 kts | 167° |
| 2026-05-06 22:14 | 33.76338 | -118.53888 | 8203 ft | 279 kts | 167° |
| 2026-05-06 22:14 | 33.74431 | -118.53365 | 8851 ft | 282 kts | 167° |
| 2026-05-06 22:14 | 33.72508 | -118.52833 | 9487 ft | 285 kts | 166° |
| 2026-05-06 22:14 | 33.70662 | -118.51940 | 10092 ft | 289 kts | 147° |
| 2026-05-06 22:15 | 33.69213 | -118.50221 | 10413 ft | 303 kts | 121° |
| 2026-05-06 22:15 | 33.68346 | -118.47839 | 10683 ft | 319 kts | 109° |
| 2026-05-06 22:15 | 33.67618 | -118.45249 | 10931 ft | 335 kts | 108° |
| 2026-05-06 22:15 | 33.66863 | -118.42576 | 11186 ft | 349 kts | 109° |
| 2026-05-06 22:16 | 33.66052 | -118.39766 | 11438 ft | 363 kts | 109° |
| 2026-05-06 22:16 | 33.65199 | -118.36847 | 11688 ft | 375 kts | 109° |
| 2026-05-06 22:16 | 33.64544 | -118.33793 | 12091 ft | 381 kts | 97° |
| 2026-05-06 22:16 | 33.64411 | -118.30597 | 12595 ft | 384 kts | 90° |
| 2026-05-06 22:17 | 33.64424 | -118.27376 | 13079 ft | 388 kts | 89° |
| 2026-05-06 22:17 | 33.64443 | -118.24125 | 13580 ft | 391 kts | 90° |
| 2026-05-06 22:17 | 33.64455 | -118.20883 | 14053 ft | 394 kts | 90° |
| 2026-05-06 22:17 | 33.64462 | -118.17590 | 14530 ft | 396 kts | 90° |
| 2026-05-06 22:18 | 33.64465 | -118.14257 | 15008 ft | 399 kts | 90° |
| 2026-05-06 22:18 | 33.64465 | -118.10908 | 15478 ft | 402 kts | 90° |
| 2026-05-06 22:18 | 33.64464 | -118.07532 | 15946 ft | 404 kts | 90° |
| 2026-05-06 22:18 | 33.64461 | -118.04146 | 16404 ft | 407 kts | 90° |
| 2026-05-06 22:19 | 33.64458 | -118.00770 | 16848 ft | 410 kts | 90° |
| 2026-05-06 22:19 | 33.64453 | -117.97342 | 17283 ft | 412 kts | 90° |
| 2026-05-06 22:19 | 33.64447 | -117.93878 | 17730 ft | 415 kts | 90° |
| 2026-05-06 22:19 | 33.64440 | -117.90417 | 18145 ft | 418 kts | 90° |
| 2026-05-06 22:20 | 33.64432 | -117.86900 | 18565 ft | 420 kts | 90° |
| 2026-05-06 22:20 | 33.64424 | -117.83382 | 18959 ft | 423 kts | 90° |
| 2026-05-06 22:20 | 33.64503 | -117.79884 | 19333 ft | 425 kts | 84° |
| 2026-05-06 22:20 | 33.64929 | -117.76365 | 19720 ft | 428 kts | 79° |
| 2026-05-06 22:21 | 33.65539 | -117.72841 | 20095 ft | 430 kts | 77° |
| 2026-05-06 22:21 | 33.66232 | -117.69340 | 20462 ft | 433 kts | 76° |
| 2026-05-06 22:21 | 33.66962 | -117.65802 | 20804 ft | 435 kts | 76° |
| 2026-05-06 22:21 | 33.67680 | -117.62310 | 21140 ft | 438 kts | 76° |
| 2026-05-06 22:22 | 33.68399 | -117.58737 | 21466 ft | 441 kts | 76° |
| 2026-05-06 22:22 | 33.69107 | -117.55140 | 21757 ft | 444 kts | 77° |
| 2026-05-06 22:22 | 33.69810 | -117.51506 | 22022 ft | 447 kts | 77° |
| 2026-05-06 22:22 | 33.70510 | -117.47847 | 22306 ft | 450 kts | 77° |
| 2026-05-06 22:23 | 33.71211 | -117.44159 | 22595 ft | 452 kts | 77° |
| 2026-05-06 22:23 | 33.71911 | -117.40466 | 22969 ft | 453 kts | 77° |
| 2026-05-06 22:23 | 33.72610 | -117.36774 | 23337 ft | 454 kts | 77° |
| 2026-05-06 22:23 | 33.73304 | -117.33101 | 23640 ft | 456 kts | 77° |
| 2026-05-06 22:24 | 33.74010 | -117.29367 | 23928 ft | 459 kts | 77° |
| 2026-05-06 22:24 | 33.74678 | -117.25603 | 24213 ft | 461 kts | 80° |
| 2026-05-06 22:24 | 33.74993 | -117.21774 | 24531 ft | 462 kts | 88° |
| 2026-05-06 22:24 | 33.75052 | -117.17941 | 24827 ft | 464 kts | 90° |
| 2026-05-06 22:25 | 33.75029 | -117.14047 | 25111 ft | 466 kts | 91° |
| 2026-05-06 22:25 | 33.74947 | -117.10144 | 25390 ft | 468 kts | 91° |
| 2026-05-06 22:25 | 33.74842 | -117.06222 | 25653 ft | 470 kts | 92° |
| 2026-05-06 22:25 | 33.74734 | -117.02271 | 25937 ft | 472 kts | 92° |
| 2026-05-06 22:26 | 33.74631 | -116.98357 | 26226 ft | 474 kts | 91° |
| 2026-05-06 22:26 | 33.74534 | -116.94387 | 26506 ft | 476 kts | 91° |
| 2026-05-06 22:26 | 33.74442 | -116.90395 | 26776 ft | 478 kts | 91° |
| 2026-05-06 22:26 | 33.74351 | -116.86392 | 27041 ft | 480 kts | 91° |
| 2026-05-06 22:27 | 33.74262 | -116.82365 | 27303 ft | 482 kts | 91° |
| 2026-05-06 22:27 | 33.74171 | -116.78318 | 27540 ft | 485 kts | 91° |
| 2026-05-06 22:27 | 33.74078 | -116.74237 | 27687 ft | 489 kts | 91° |
| 2026-05-06 22:27 | 33.73984 | -116.70185 | 27815 ft | 492 kts | 91° |
| 2026-05-06 22:28 | 33.73886 | -116.66045 | 27965 ft | 495 kts | 91° |
| 2026-05-06 22:28 | 33.73786 | -116.61891 | 28130 ft | 497 kts | 91° |
| 2026-05-06 22:28 | 33.73684 | -116.57730 | 28431 ft | 497 kts | 91° |
| 2026-05-06 22:28 | 33.73581 | -116.53572 | 28761 ft | 496 kts | 91° |
| 2026-05-06 22:29 | 33.73478 | -116.49476 | 29106 ft | 496 kts | 91° |
| 2026-05-06 22:29 | 33.73372 | -116.45318 | 29345 ft | 497 kts | 92° |
| 2026-05-06 22:29 | 33.73265 | -116.41145 | 29587 ft | 499 kts | 92° |
| 2026-05-06 22:29 | 33.73156 | -116.36975 | 29901 ft | 499 kts | 92° |
| 2026-05-06 22:30 | 33.73047 | -116.32861 | 30290 ft | 497 kts | 92° |
| 2026-05-06 22:30 | 33.72936 | -116.28713 | 30697 ft | 495 kts | 92° |
| 2026-05-06 22:30 | 33.72824 | -116.24569 | 31078 ft | 494 kts | 92° |
| 2026-05-06 22:30 | 33.72711 | -116.20448 | 31446 ft | 493 kts | 92° |
| 2026-05-06 22:31 | 33.72596 | -116.16317 | 31801 ft | 493 kts | 92° |
| 2026-05-06 22:31 | 33.72496 | -116.12206 | 32130 ft | 492 kts | 90° |
| 2026-05-06 22:31 | 33.72686 | -116.08100 | 32421 ft | 492 kts | 82° |
| 2026-05-06 22:31 | 33.73348 | -116.04061 | 32685 ft | 493 kts | 74° |
| 2026-05-06 22:32 | 33.74300 | -116.00149 | 32911 ft | 494 kts | 72° |
| 2026-05-06 22:32 | 33.75355 | -115.96204 | 33115 ft | 496 kts | 71° |
| 2026-05-06 22:32 | 33.76455 | -115.92271 | 33344 ft | 496 kts | 71° |
| 2026-05-06 22:32 | 33.77572 | -115.88333 | 33598 ft | 496 kts | 71° |
| 2026-05-06 22:33 | 33.78674 | -115.84445 | 33885 ft | 496 kts | 71° |
| 2026-05-06 22:33 | 33.79779 | -115.80515 | 34186 ft | 495 kts | 71° |
| 2026-05-06 22:33 | 33.80873 | -115.76593 | 34483 ft | 494 kts | 71° |
| 2026-05-06 22:33 | 33.81960 | -115.72666 | 34777 ft | 492 kts | 71° |
| 2026-05-06 22:34 | 33.83038 | -115.68755 | 35066 ft | 491 kts | 71° |
| 2026-05-06 22:34 | 33.84112 | -115.64847 | 35347 ft | 491 kts | 71° |
| 2026-05-06 22:34 | 33.85168 | -115.60998 | 35630 ft | 490 kts | 71° |
| 2026-05-06 22:34 | 33.86234 | -115.57107 | 35881 ft | 489 kts | 71° |
| 2026-05-06 22:35 | 33.87301 | -115.53206 | 36113 ft | 489 kts | 72° |
| 2026-05-06 22:35 | 33.88366 | -115.49310 | 36351 ft | 489 kts | 72° |
| 2026-05-06 22:35 | 33.89430 | -115.45413 | 36585 ft | 489 kts | 72° |
| 2026-05-06 22:35 | 33.90477 | -115.41574 | 36860 ft | 487 kts | 72° |
| 2026-05-06 22:36 | 33.91535 | -115.37689 | 36990 ft | 489 kts | 72° |
| 2026-05-06 22:36 | 33.92597 | -115.33784 | 36999 ft | 492 kts | 72° |
| 2026-05-06 22:36 | 33.94729 | -115.25930 | 37000 ft | 493 kts | 72° |
| 2026-05-06 22:37 | 33.96853 | -115.18080 | 37000 ft | 492 kts | 72° |
| 2026-05-06 22:37 | 33.98975 | -115.10214 | 36999 ft | 494 kts | 72° |
| 2026-05-06 22:38 | 34.01088 | -115.02360 | 37000 ft | 494 kts | 72° |
| 2026-05-06 22:38 | 34.03205 | -114.94467 | 37000 ft | 493 kts | 72° |
| 2026-05-06 22:39 | 34.05300 | -114.86634 | 37000 ft | 493 kts | 72° |
| 2026-05-06 22:39 | 34.07045 | -114.80094 | 37000 ft | 492 kts | 72° |
| 2026-05-06 22:40 | 34.09142 | -114.72213 | 37000 ft | 492 kts | 72° |
| 2026-05-06 22:40 | 34.11525 | -114.64457 | 37000 ft | 492 kts | 68° |
| 2026-05-06 22:41 | 34.15468 | -114.53058 | 37000 ft | 492 kts | 67° |
| 2026-05-06 22:42 | 34.18128 | -114.45438 | 37000 ft | 492 kts | 67° |
| 2026-05-06 22:42 | 34.20779 | -114.37806 | 37000 ft | 492 kts | 67° |
| 2026-05-06 22:43 | 34.23407 | -114.30208 | 37000 ft | 492 kts | 67° |
| 2026-05-06 22:43 | 34.26041 | -114.22567 | 37000 ft | 492 kts | 67° |
| 2026-05-06 22:44 | 34.28671 | -114.14922 | 37001 ft | 492 kts | 67° |
| 2026-05-06 22:44 | 34.31297 | -114.07269 | 37000 ft | 491 kts | 67° |
| 2026-05-06 22:45 | 34.33898 | -113.99671 | 37000 ft | 492 kts | 67° |
| 2026-05-06 22:45 | 34.36518 | -113.91999 | 37000 ft | 493 kts | 67° |
| 2026-05-06 22:46 | 34.39144 | -113.84293 | 37000 ft | 494 kts | 68° |
| 2026-05-06 22:46 | 34.41747 | -113.76632 | 37000 ft | 495 kts | 68° |
| 2026-05-06 22:47 | 34.44363 | -113.68916 | 37000 ft | 495 kts | 68° |
| 2026-05-06 22:47 | 34.46979 | -113.61179 | 37001 ft | 494 kts | 68° |
| 2026-05-06 22:48 | 34.49583 | -113.53460 | 36999 ft | 494 kts | 68° |
| 2026-05-06 22:48 | 34.52172 | -113.45763 | 37001 ft | 496 kts | 68° |
| 2026-05-06 22:49 | 34.54774 | -113.38014 | 37001 ft | 495 kts | 68° |
| 2026-05-06 22:49 | 34.57372 | -113.30252 | 37000 ft | 495 kts | 68° |
| 2026-05-06 22:50 | 34.59952 | -113.22527 | 37000 ft | 497 kts | 68° |
| 2026-05-06 22:50 | 34.62551 | -113.14725 | 37000 ft | 499 kts | 68° |
| 2026-05-06 22:51 | 34.65149 | -113.06908 | 37000 ft | 499 kts | 68° |
| 2026-05-06 22:51 | 34.67753 | -112.99051 | 37001 ft | 501 kts | 68° |
| 2026-05-06 22:52 | 34.70340 | -112.91227 | 37000 ft | 501 kts | 68° |
| 2026-05-06 22:52 | 34.72937 | -112.83348 | 37000 ft | 501 kts | 68° |
| 2026-05-06 22:53 | 34.75537 | -112.75442 | 37001 ft | 502 kts | 68° |
| 2026-05-06 22:53 | 34.78115 | -112.67584 | 37001 ft | 501 kts | 68° |
| 2026-05-06 22:54 | 34.80690 | -112.59713 | 37000 ft | 500 kts | 68° |
| 2026-05-06 22:54 | 34.83264 | -112.51824 | 37000 ft | 501 kts | 68° |
| 2026-05-06 22:55 | 34.85815 | -112.43988 | 37000 ft | 500 kts | 68° |
| 2026-05-06 22:55 | 34.88377 | -112.36097 | 37000 ft | 500 kts | 68° |
| 2026-05-06 22:56 | 34.90931 | -112.28210 | 37001 ft | 500 kts | 68° |
| 2026-05-06 22:56 | 34.93464 | -112.20364 | 37000 ft | 499 kts | 68° |
| 2026-05-06 22:57 | 34.96008 | -112.12467 | 37000 ft | 500 kts | 68° |
| 2026-05-06 22:57 | 34.98434 | -112.04916 | 37000 ft | 502 kts | 68° |
| 2026-05-06 22:58 | 35.01471 | -111.97260 | 37002 ft | 501 kts | 59° |
| 2026-05-06 22:58 | 35.05105 | -111.89980 | 36999 ft | 503 kts | 58° |
| 2026-05-06 22:59 | 35.08850 | -111.82716 | 37000 ft | 505 kts | 57° |
| 2026-05-06 22:59 | 35.12574 | -111.75486 | 36999 ft | 506 kts | 58° |
| 2026-05-06 23:00 | 35.16317 | -111.68171 | 37000 ft | 506 kts | 58° |
| 2026-05-06 23:00 | 35.20037 | -111.60868 | 37001 ft | 505 kts | 58° |
| 2026-05-06 23:01 | 35.23722 | -111.53617 | 37000 ft | 505 kts | 58° |
| 2026-05-06 23:01 | 35.27425 | -111.46314 | 37000 ft | 504 kts | 58° |
| 2026-05-06 23:02 | 35.31114 | -111.39026 | 37000 ft | 504 kts | 58° |
| 2026-05-06 23:02 | 35.34804 | -111.31720 | 37001 ft | 503 kts | 58° |
| 2026-05-06 23:03 | 35.38479 | -111.24430 | 37001 ft | 502 kts | 58° |
| 2026-05-06 23:03 | 35.42119 | -111.17192 | 37000 ft | 500 kts | 58° |
| 2026-05-06 23:04 | 35.45773 | -111.09913 | 37000 ft | 500 kts | 58° |
| 2026-05-06 23:04 | 35.49420 | -111.02632 | 37000 ft | 500 kts | 58° |
| 2026-05-06 23:05 | 35.53047 | -110.95375 | 37000 ft | 501 kts | 58° |
| 2026-05-06 23:05 | 35.56685 | -110.88081 | 37000 ft | 501 kts | 58° |
| 2026-05-06 23:06 | 35.60333 | -110.80752 | 37000 ft | 501 kts | 58° |
| 2026-05-06 23:06 | 35.63946 | -110.73477 | 37000 ft | 501 kts | 58° |
| 2026-05-06 23:07 | 35.67586 | -110.66132 | 37000 ft | 502 kts | 58° |
| 2026-05-06 23:07 | 35.71217 | -110.58789 | 37000 ft | 502 kts | 58° |
| 2026-05-06 23:08 | 35.74831 | -110.51466 | 37000 ft | 502 kts | 58° |
| 2026-05-06 23:08 | 35.78439 | -110.44140 | 37000 ft | 502 kts | 58° |
| 2026-05-06 23:09 | 35.82059 | -110.36773 | 37000 ft | 502 kts | 59° |
| 2026-05-06 23:09 | 35.85679 | -110.29391 | 37000 ft | 502 kts | 59° |
| 2026-05-06 23:10 | 35.89277 | -110.22036 | 37000 ft | 503 kts | 59° |
| 2026-05-06 23:10 | 35.92891 | -110.14633 | 37000 ft | 503 kts | 59° |
| 2026-05-06 23:11 | 35.96511 | -110.07203 | 37000 ft | 504 kts | 59° |
| 2026-05-06 23:11 | 36.00128 | -109.99764 | 37000 ft | 504 kts | 59° |
| 2026-05-06 23:12 | 36.03411 | -109.92169 | 37000 ft | 505 kts | 64° |
| 2026-05-06 23:12 | 36.06395 | -109.84297 | 37001 ft | 504 kts | 65° |
| 2026-05-06 23:13 | 36.09396 | -109.76456 | 37000 ft | 503 kts | 64° |
| 2026-05-06 23:13 | 36.12428 | -109.68722 | 37000 ft | 503 kts | 64° |
| 2026-05-06 23:14 | 36.15502 | -109.60946 | 37000 ft | 502 kts | 64° |
| 2026-05-06 23:14 | 36.18574 | -109.53166 | 37000 ft | 502 kts | 64° |
| 2026-05-06 23:15 | 36.21640 | -109.45371 | 37000 ft | 503 kts | 64° |
| 2026-05-06 23:15 | 36.24704 | -109.37557 | 37000 ft | 504 kts | 64° |
| 2026-05-06 23:16 | 36.27754 | -109.29758 | 37000 ft | 505 kts | 64° |
| 2026-05-06 23:16 | 36.30801 | -109.21948 | 37001 ft | 505 kts | 64° |
| 2026-05-06 23:17 | 36.33866 | -109.14073 | 36999 ft | 506 kts | 64° |
| 2026-05-06 23:17 | 36.36932 | -109.06175 | 36999 ft | 508 kts | 64° |
| 2026-05-06 23:18 | 36.39980 | -108.98307 | 37000 ft | 507 kts | 64° |
| 2026-05-06 23:18 | 36.43029 | -108.90415 | 37001 ft | 505 kts | 64° |
| 2026-05-06 23:19 | 36.46059 | -108.82552 | 37001 ft | 503 kts | 64° |
| 2026-05-06 23:19 | 36.49079 | -108.74695 | 37000 ft | 503 kts | 64° |
| 2026-05-06 23:20 | 36.52066 | -108.66904 | 37001 ft | 502 kts | 64° |
| 2026-05-06 23:20 | 36.55072 | -108.59046 | 37000 ft | 502 kts | 64° |
| 2026-05-06 23:21 | 36.58065 | -108.51201 | 37000 ft | 501 kts | 64° |
| 2026-05-06 23:21 | 36.61039 | -108.43387 | 37000 ft | 502 kts | 64° |
| 2026-05-06 23:22 | 36.64032 | -108.35503 | 37000 ft | 502 kts | 64° |
| 2026-05-06 23:22 | 36.67019 | -108.27616 | 37000 ft | 502 kts | 65° |
| 2026-05-06 23:23 | 36.69979 | -108.19780 | 37001 ft | 503 kts | 65° |
| 2026-05-06 23:23 | 36.72956 | -108.11880 | 37000 ft | 502 kts | 65° |
| 2026-05-06 23:24 | 36.75427 | -108.05308 | 37000 ft | 502 kts | 65° |
| 2026-05-06 23:24 | 36.78873 | -107.96117 | 37000 ft | 503 kts | 65° |
| 2026-05-06 23:25 | 36.81335 | -107.89537 | 37000 ft | 503 kts | 65° |
| 2026-05-06 23:25 | 36.84301 | -107.81587 | 37000 ft | 504 kts | 65° |
| 2026-05-06 23:26 | 36.87263 | -107.73628 | 37000 ft | 504 kts | 65° |
| 2026-05-06 23:26 | 36.90215 | -107.65678 | 37000 ft | 504 kts | 65° |
| 2026-05-06 23:27 | 36.93141 | -107.57777 | 37000 ft | 504 kts | 65° |
| 2026-05-06 23:27 | 36.96093 | -107.49783 | 37001 ft | 504 kts | 65° |
| 2026-05-06 23:28 | 36.99028 | -107.41817 | 37000 ft | 504 kts | 65° |
| 2026-05-06 23:28 | 37.01935 | -107.33904 | 37000 ft | 504 kts | 65° |
| 2026-05-06 23:29 | 37.04865 | -107.25909 | 37000 ft | 505 kts | 65° |
| 2026-05-06 23:29 | 37.07796 | -107.17893 | 37001 ft | 505 kts | 65° |
| 2026-05-06 23:30 | 37.10703 | -107.09920 | 36999 ft | 505 kts | 65° |
| 2026-05-06 23:30 | 37.13625 | -107.01884 | 37000 ft | 506 kts | 65° |
| 2026-05-06 23:31 | 37.16523 | -106.93893 | 37000 ft | 505 kts | 65° |
| 2026-05-06 23:31 | 37.19430 | -106.85856 | 36999 ft | 507 kts | 65° |
| 2026-05-06 23:32 | 37.22345 | -106.77774 | 37000 ft | 508 kts | 65° |
| 2026-05-06 23:32 | 37.25259 | -106.69676 | 36998 ft | 509 kts | 65° |
| 2026-05-06 23:33 | 37.28172 | -106.61561 | 37000 ft | 514 kts | 65° |
| 2026-05-06 23:33 | 37.31106 | -106.53363 | 37000 ft | 515 kts | 65° |
| 2026-05-06 23:34 | 37.34039 | -106.45148 | 37000 ft | 513 kts | 66° |
| 2026-05-06 23:34 | 37.36948 | -106.36976 | 37000 ft | 513 kts | 66° |
| 2026-05-06 23:35 | 37.39852 | -106.28795 | 37001 ft | 511 kts | 66° |
| 2026-05-06 23:35 | 37.42744 | -106.20625 | 37001 ft | 510 kts | 66° |
| 2026-05-06 23:36 | 37.45621 | -106.12476 | 37001 ft | 507 kts | 66° |
| 2026-05-06 23:36 | 37.48466 | -106.04396 | 37000 ft | 507 kts | 66° |
| 2026-05-06 23:37 | 37.51336 | -105.96272 | 37000 ft | 506 kts | 65° |
| 2026-05-06 23:37 | 37.54305 | -105.88202 | 37000 ft | 506 kts | 65° |
| 2026-05-06 23:38 | 37.57269 | -105.80205 | 37000 ft | 506 kts | 65° |
| 2026-05-06 23:38 | 37.60235 | -105.72137 | 37000 ft | 506 kts | 65° |
| 2026-05-06 23:39 | 37.63186 | -105.64052 | 37000 ft | 506 kts | 65° |
| 2026-05-06 23:39 | 37.66127 | -105.55962 | 37000 ft | 507 kts | 65° |
| 2026-05-06 23:40 | 37.69056 | -105.47886 | 36998 ft | 510 kts | 65° |
| 2026-05-06 23:40 | 37.72017 | -105.39702 | 37000 ft | 512 kts | 65° |
| 2026-05-06 23:41 | 37.74966 | -105.31531 | 37001 ft | 509 kts | 65° |
| 2026-05-06 23:41 | 37.77880 | -105.23434 | 37001 ft | 507 kts | 65° |
| 2026-05-06 23:42 | 37.80793 | -105.15319 | 37000 ft | 506 kts | 65° |
| 2026-05-06 23:42 | 37.83698 | -105.07201 | 37000 ft | 506 kts | 65° |
| 2026-05-06 23:43 | 37.86592 | -104.99095 | 36999 ft | 510 kts | 65° |
| 2026-05-06 23:43 | 37.89514 | -104.90888 | 37002 ft | 508 kts | 65° |
| 2026-05-06 23:44 | 37.92403 | -104.82749 | 37001 ft | 504 kts | 65° |
| 2026-05-06 23:44 | 37.95274 | -104.74642 | 37001 ft | 503 kts | 66° |
| 2026-05-06 23:45 | 37.98130 | -104.66553 | 37001 ft | 502 kts | 66° |
| 2026-05-06 23:45 | 38.00970 | -104.58488 | 37000 ft | 502 kts | 66° |
| 2026-05-06 23:46 | 38.03814 | -104.50388 | 37000 ft | 502 kts | 66° |
| 2026-05-06 23:46 | 38.06655 | -104.42276 | 37000 ft | 501 kts | 66° |
| 2026-05-06 23:47 | 38.09467 | -104.34227 | 37000 ft | 500 kts | 66° |
| 2026-05-06 23:47 | 38.12292 | -104.26117 | 37000 ft | 500 kts | 66° |
| 2026-05-06 23:48 | 38.15090 | -104.18062 | 37000 ft | 500 kts | 66° |
| 2026-05-06 23:48 | 38.17893 | -104.09971 | 37000 ft | 500 kts | 66° |
| 2026-05-06 23:49 | 38.20675 | -104.01916 | 37000 ft | 500 kts | 66° |
| 2026-05-06 23:49 | 38.23476 | -103.93788 | 37000 ft | 500 kts | 66° |
| 2026-05-06 23:50 | 38.26266 | -103.85666 | 37000 ft | 500 kts | 66° |
| 2026-05-06 23:50 | 38.30416 | -103.73546 | 37000 ft | 500 kts | 66° |
| 2026-05-06 23:51 | 38.33188 | -103.65421 | 37000 ft | 500 kts | 66° |
| 2026-05-06 23:51 | 38.35958 | -103.57280 | 37000 ft | 500 kts | 66° |
| 2026-05-06 23:52 | 38.38703 | -103.49190 | 37000 ft | 500 kts | 66° |
| 2026-05-06 23:52 | 38.41460 | -103.41040 | 37000 ft | 500 kts | 66° |
| 2026-05-06 23:53 | 38.44210 | -103.32890 | 37000 ft | 499 kts | 66° |
| 2026-05-06 23:53 | 38.46942 | -103.24769 | 37000 ft | 499 kts | 66° |
| 2026-05-06 23:54 | 38.49687 | -103.16588 | 37000 ft | 500 kts | 66° |
| 2026-05-06 23:54 | 38.52410 | -103.08447 | 37000 ft | 500 kts | 67° |
| 2026-05-06 23:55 | 38.55141 | -103.00262 | 37000 ft | 500 kts | 67° |
| 2026-05-06 23:55 | 38.57853 | -102.92111 | 37000 ft | 500 kts | 67° |
| 2026-05-06 23:56 | 38.60568 | -102.83923 | 37000 ft | 500 kts | 67° |
| 2026-05-06 23:56 | 38.63281 | -102.75722 | 37000 ft | 499 kts | 67° |
| 2026-05-06 23:57 | 38.65964 | -102.67589 | 37000 ft | 499 kts | 67° |
| 2026-05-06 23:57 | 38.68656 | -102.59404 | 37000 ft | 499 kts | 67° |
| 2026-05-06 23:58 | 38.71354 | -102.51177 | 37000 ft | 499 kts | 67° |
| 2026-05-06 23:58 | 38.74036 | -102.42972 | 37000 ft | 500 kts | 67° |
| 2026-05-06 23:59 | 38.76704 | -102.34788 | 37001 ft | 499 kts | 67° |
| 2026-05-06 23:59 | 38.79379 | -102.26563 | 37000 ft | 499 kts | 67° |
| 2026-05-07 00:00 | 38.82045 | -102.18336 | 37000 ft | 499 kts | 67° |
| 2026-05-07 00:00 | 38.84258 | -102.11490 | 37000 ft | 499 kts | 67° |
| 2026-05-07 00:01 | 38.87343 | -102.01921 | 37000 ft | 499 kts | 67° |
| 2026-05-07 00:01 | 38.89991 | -101.93682 | 37000 ft | 498 kts | 68° |
| 2026-05-07 00:02 | 38.92618 | -101.85480 | 37000 ft | 498 kts | 68° |
| 2026-05-07 00:02 | 38.95255 | -101.77227 | 37001 ft | 498 kts | 68° |
| 2026-05-07 00:03 | 38.97882 | -101.68980 | 37000 ft | 498 kts | 68° |
| 2026-05-07 00:03 | 39.00483 | -101.60788 | 37000 ft | 498 kts | 68° |
| 2026-05-07 00:04 | 39.03098 | -101.52530 | 37000 ft | 497 kts | 68° |
| 2026-05-07 00:04 | 39.05705 | -101.44272 | 37000 ft | 497 kts | 68° |
| 2026-05-07 00:05 | 39.08289 | -101.36062 | 37000 ft | 497 kts | 68° |
| 2026-05-07 00:05 | 39.10886 | -101.27789 | 37000 ft | 497 kts | 68° |
| 2026-05-07 00:06 | 39.13477 | -101.19507 | 37000 ft | 497 kts | 68° |
| 2026-05-07 00:06 | 39.16041 | -101.11287 | 37000 ft | 497 kts | 68° |
| 2026-05-07 00:07 | 39.18184 | -101.04401 | 37000 ft | 497 kts | 68° |
| 2026-05-07 00:07 | 39.20756 | -100.96109 | 37000 ft | 497 kts | 68° |
| 2026-05-07 00:08 | 39.23322 | -100.87814 | 37000 ft | 497 kts | 68° |
| 2026-05-07 00:08 | 39.25878 | -100.79526 | 37000 ft | 497 kts | 68° |
| 2026-05-07 00:09 | 39.28426 | -100.71237 | 37000 ft | 496 kts | 68° |
| 2026-05-07 00:09 | 39.30953 | -100.62993 | 37000 ft | 496 kts | 68° |
| 2026-05-07 00:10 | 39.33494 | -100.54677 | 37000 ft | 496 kts | 68° |
| 2026-05-07 00:10 | 39.36024 | -100.46373 | 37000 ft | 496 kts | 68° |
| 2026-05-07 00:11 | 39.38533 | -100.38114 | 37000 ft | 496 kts | 68° |
| 2026-05-07 00:11 | 39.41053 | -100.29790 | 37000 ft | 496 kts | 69° |
| 2026-05-07 00:12 | 39.43550 | -100.21519 | 37000 ft | 496 kts | 69° |
| 2026-05-07 00:12 | 39.46057 | -100.13187 | 37000 ft | 496 kts | 69° |
| 2026-05-07 00:13 | 39.48558 | -100.04852 | 37000 ft | 495 kts | 69° |
| 2026-05-07 00:13 | 39.51073 | -99.96602 | 37000 ft | 495 kts | 66° |
| 2026-05-07 00:14 | 39.54044 | -99.88521 | 37000 ft | 495 kts | 63° |
| 2026-05-07 00:14 | 39.57104 | -99.80572 | 37000 ft | 495 kts | 64° |
| 2026-05-07 00:15 | 39.60121 | -99.72528 | 37001 ft | 495 kts | 64° |
| 2026-05-07 00:15 | 39.63080 | -99.64465 | 37000 ft | 495 kts | 64° |
| 2026-05-07 00:16 | 39.66006 | -99.56428 | 37000 ft | 494 kts | 64° |
| 2026-05-07 00:16 | 39.68944 | -99.48342 | 37000 ft | 494 kts | 64° |
| 2026-05-07 00:17 | 39.71874 | -99.40261 | 37000 ft | 494 kts | 65° |
| 2026-05-07 00:17 | 39.74801 | -99.32171 | 37000 ft | 494 kts | 65° |
| 2026-05-07 00:18 | 39.77719 | -99.24082 | 37000 ft | 494 kts | 65° |
| 2026-05-07 00:18 | 39.80623 | -99.16011 | 37000 ft | 494 kts | 65° |
| 2026-05-07 00:19 | 39.83533 | -99.07900 | 37000 ft | 494 kts | 65° |
| 2026-05-07 00:19 | 39.86444 | -98.99763 | 37000 ft | 494 kts | 65° |
| 2026-05-07 00:20 | 39.89326 | -98.91685 | 37000 ft | 494 kts | 65° |
| 2026-05-07 00:20 | 39.92223 | -98.83543 | 37000 ft | 494 kts | 65° |
| 2026-05-07 00:21 | 39.95099 | -98.75436 | 37000 ft | 494 kts | 65° |
| 2026-05-07 00:21 | 39.97983 | -98.67284 | 37000 ft | 494 kts | 65° |
| 2026-05-07 00:22 | 40.00862 | -98.59124 | 37000 ft | 494 kts | 65° |
| 2026-05-07 00:22 | 40.03718 | -98.51005 | 37001 ft | 494 kts | 65° |
| 2026-05-07 00:23 | 40.06581 | -98.42843 | 37000 ft | 494 kts | 65° |
| 2026-05-07 00:23 | 40.09442 | -98.34666 | 37000 ft | 494 kts | 65° |
| 2026-05-07 00:24 | 40.12290 | -98.26499 | 37000 ft | 494 kts | 65° |
| 2026-05-07 00:24 | 40.15115 | -98.18377 | 37000 ft | 494 kts | 65° |
| 2026-05-07 00:25 | 40.17962 | -98.10168 | 37000 ft | 494 kts | 65° |
| 2026-05-07 00:25 | 40.20797 | -98.01971 | 37000 ft | 494 kts | 65° |
| 2026-05-07 00:26 | 40.23606 | -97.93826 | 37000 ft | 493 kts | 65° |
| 2026-05-07 00:26 | 40.26428 | -97.85618 | 37000 ft | 493 kts | 65° |
| 2026-05-07 00:27 | 40.29249 | -97.77389 | 37000 ft | 493 kts | 66° |
| 2026-05-07 00:27 | 40.32041 | -97.69222 | 37000 ft | 493 kts | 66° |
| 2026-05-07 00:28 | 40.34850 | -97.60982 | 37000 ft | 493 kts | 66° |
| 2026-05-07 00:28 | 40.37648 | -97.52748 | 37000 ft | 493 kts | 66° |
| 2026-05-07 00:29 | 40.40428 | -97.44546 | 37000 ft | 493 kts | 66° |
| 2026-05-07 00:30 | 40.45984 | -97.28078 | 37000 ft | 493 kts | 66° |
| 2026-05-07 00:30 | 40.48758 | -97.19821 | 37000 ft | 493 kts | 66° |
| 2026-05-07 00:31 | 40.51521 | -97.11571 | 37000 ft | 493 kts | 66° |
| 2026-05-07 00:31 | 40.54266 | -97.03351 | 37000 ft | 493 kts | 66° |
| 2026-05-07 00:32 | 40.57020 | -96.95080 | 37000 ft | 493 kts | 66° |
| 2026-05-07 00:32 | 40.59769 | -96.86801 | 37000 ft | 493 kts | 66° |
| 2026-05-07 00:33 | 40.62499 | -96.78551 | 37000 ft | 493 kts | 66° |
| 2026-05-07 00:33 | 40.65240 | -96.70247 | 37000 ft | 493 kts | 66° |
| 2026-05-07 00:34 | 40.67953 | -96.61999 | 37000 ft | 493 kts | 66° |
| 2026-05-07 00:34 | 40.70685 | -96.53672 | 37000 ft | 493 kts | 66° |
| 2026-05-07 00:35 | 40.73389 | -96.45406 | 37000 ft | 493 kts | 66° |
| 2026-05-07 00:35 | 40.76098 | -96.37098 | 37000 ft | 493 kts | 66° |
| 2026-05-07 00:36 | 40.78805 | -96.28771 | 37000 ft | 493 kts | 66° |
| 2026-05-07 00:36 | 40.81489 | -96.20489 | 37000 ft | 493 kts | 66° |
| 2026-05-07 00:37 | 40.84182 | -96.12156 | 37000 ft | 493 kts | 67° |
| 2026-05-07 00:37 | 40.86866 | -96.03823 | 37000 ft | 492 kts | 67° |
| 2026-05-07 00:38 | 40.89531 | -95.95528 | 37000 ft | 492 kts | 67° |
| 2026-05-07 00:38 | 40.92205 | -95.87176 | 37000 ft | 492 kts | 67° |
| 2026-05-07 00:39 | 40.94871 | -95.78822 | 37000 ft | 492 kts | 67° |
| 2026-05-07 00:39 | 40.97531 | -95.70464 | 37000 ft | 492 kts | 67° |
| 2026-05-07 00:40 | 41.00170 | -95.62145 | 37000 ft | 492 kts | 67° |
| 2026-05-07 00:40 | 41.02821 | -95.53764 | 37000 ft | 492 kts | 67° |
| 2026-05-07 00:41 | 41.05463 | -95.45387 | 37000 ft | 492 kts | 67° |
| 2026-05-07 00:41 | 41.08083 | -95.37050 | 37000 ft | 492 kts | 67° |
| 2026-05-07 00:42 | 41.10713 | -95.28657 | 37000 ft | 492 kts | 67° |
| 2026-05-07 00:42 | 41.13337 | -95.20257 | 37000 ft | 492 kts | 67° |
| 2026-05-07 00:43 | 41.15962 | -95.11830 | 37000 ft | 492 kts | 68° |
| 2026-05-07 00:43 | 41.18557 | -95.03469 | 37000 ft | 493 kts | 68° |
| 2026-05-07 00:44 | 41.21162 | -94.95051 | 37000 ft | 493 kts | 68° |
| 2026-05-07 00:44 | 41.23761 | -94.86626 | 37000 ft | 493 kts | 68° |
| 2026-05-07 00:45 | 41.26360 | -94.78176 | 37000 ft | 493 kts | 68° |
| 2026-05-07 00:45 | 41.28932 | -94.69786 | 37000 ft | 493 kts | 68° |
| 2026-05-07 00:46 | 41.31514 | -94.61337 | 37000 ft | 493 kts | 68° |
| 2026-05-07 00:46 | 41.34092 | -94.52871 | 37000 ft | 493 kts | 68° |
| 2026-05-07 00:47 | 41.36665 | -94.44399 | 37000 ft | 493 kts | 68° |
| 2026-05-07 00:47 | 41.39218 | -94.35963 | 37000 ft | 493 kts | 68° |
| 2026-05-07 00:48 | 41.41779 | -94.27474 | 37001 ft | 493 kts | 68° |
| 2026-05-07 00:48 | 41.44316 | -94.19038 | 37000 ft | 492 kts | 68° |
| 2026-05-07 00:49 | 41.46435 | -94.11971 | 37000 ft | 492 kts | 68° |
| 2026-05-07 00:49 | 41.48969 | -94.03492 | 37001 ft | 492 kts | 68° |
| 2026-05-07 00:50 | 41.51465 | -93.94974 | 37000 ft | 492 kts | 70° |
| 2026-05-07 00:50 | 41.53773 | -93.86362 | 37000 ft | 492 kts | 70° |
| 2026-05-07 00:51 | 41.56034 | -93.77782 | 37000 ft | 492 kts | 70° |
| 2026-05-07 00:51 | 41.58333 | -93.69143 | 37000 ft | 492 kts | 70° |
| 2026-05-07 00:52 | 41.60628 | -93.60563 | 37000 ft | 492 kts | 70° |
| 2026-05-07 00:52 | 41.62931 | -93.51935 | 37000 ft | 492 kts | 70° |
| 2026-05-07 00:53 | 41.65213 | -93.43357 | 37000 ft | 492 kts | 70° |
| 2026-05-07 00:53 | 41.67500 | -93.34723 | 37000 ft | 492 kts | 70° |
| 2026-05-07 00:54 | 41.69780 | -93.26083 | 37000 ft | 492 kts | 70° |
| 2026-05-07 00:54 | 41.72040 | -93.17488 | 37000 ft | 492 kts | 70° |
| 2026-05-07 00:55 | 41.74309 | -93.08831 | 37000 ft | 492 kts | 70° |
| 2026-05-07 00:55 | 41.76573 | -93.00159 | 37000 ft | 492 kts | 71° |
| 2026-05-07 00:56 | 41.78816 | -92.91537 | 37000 ft | 492 kts | 71° |
| 2026-05-07 00:56 | 41.81066 | -92.82857 | 37000 ft | 492 kts | 71° |
| 2026-05-07 00:57 | 41.83296 | -92.74223 | 37000 ft | 492 kts | 71° |
| 2026-05-07 00:57 | 41.85531 | -92.65542 | 37000 ft | 492 kts | 71° |
| 2026-05-07 00:58 | 41.87758 | -92.56855 | 37000 ft | 492 kts | 71° |
| 2026-05-07 00:58 | 41.89981 | -92.48154 | 37000 ft | 492 kts | 71° |
| 2026-05-07 00:59 | 41.93288 | -92.35157 | 37000 ft | 492 kts | 71° |
| 2026-05-07 01:00 | 41.95491 | -92.26454 | 37000 ft | 492 kts | 71° |
| 2026-05-07 01:00 | 41.97678 | -92.17783 | 37000 ft | 492 kts | 71° |
| 2026-05-07 01:01 | 41.99873 | -92.09049 | 37000 ft | 492 kts | 71° |
| 2026-05-07 01:01 | 42.02061 | -92.00313 | 37000 ft | 492 kts | 71° |
| 2026-05-07 01:02 | 42.04226 | -91.91634 | 37000 ft | 492 kts | 71° |
| 2026-05-07 01:02 | 42.06398 | -91.82894 | 37000 ft | 492 kts | 71° |
| 2026-05-07 01:03 | 42.08567 | -91.74137 | 37000 ft | 492 kts | 71° |
| 2026-05-07 01:03 | 42.10712 | -91.65443 | 37000 ft | 492 kts | 71° |
| 2026-05-07 01:04 | 42.12865 | -91.56681 | 37000 ft | 492 kts | 71° |
| 2026-05-07 01:04 | 42.15013 | -91.47909 | 37000 ft | 492 kts | 71° |
| 2026-05-07 01:05 | 42.17154 | -91.39131 | 37000 ft | 492 kts | 72° |
| 2026-05-07 01:05 | 42.19273 | -91.30412 | 37000 ft | 492 kts | 72° |
| 2026-05-07 01:06 | 42.21398 | -91.21633 | 37000 ft | 492 kts | 72° |
| 2026-05-07 01:06 | 42.23520 | -91.12834 | 37001 ft | 492 kts | 72° |
| 2026-05-07 01:07 | 42.25626 | -91.04064 | 37000 ft | 492 kts | 72° |
| 2026-05-07 01:07 | 42.27724 | -90.95298 | 37000 ft | 492 kts | 72° |
| 2026-05-07 01:08 | 42.29825 | -90.86483 | 37000 ft | 492 kts | 72° |
| 2026-05-07 01:08 | 42.31908 | -90.77710 | 37000 ft | 492 kts | 72° |
| 2026-05-07 01:09 | 42.33997 | -90.68879 | 37000 ft | 492 kts | 72° |
| 2026-05-07 01:09 | 42.36076 | -90.60054 | 37000 ft | 492 kts | 72° |
| 2026-05-07 01:10 | 42.38132 | -90.51294 | 37000 ft | 492 kts | 72° |
| 2026-05-07 01:10 | 42.40198 | -90.42457 | 37000 ft | 491 kts | 72° |
| 2026-05-07 01:11 | 42.42258 | -90.33608 | 37000 ft | 492 kts | 72° |
| 2026-05-07 01:11 | 42.44299 | -90.24812 | 37000 ft | 492 kts | 72° |
| 2026-05-07 01:12 | 42.46346 | -90.15951 | 37000 ft | 492 kts | 72° |
| 2026-05-07 01:12 | 42.48376 | -90.07127 | 37000 ft | 492 kts | 72° |
| 2026-05-07 01:13 | 42.50681 | -89.98408 | 37004 ft | 492 kts | 65° |
| 2026-05-07 01:13 | 42.53652 | -89.90044 | 37000 ft | 492 kts | 63° |
| 2026-05-07 01:14 | 42.56723 | -89.81748 | 37000 ft | 492 kts | 63° |
| 2026-05-07 01:14 | 42.59801 | -89.73443 | 37000 ft | 492 kts | 63° |
| 2026-05-07 01:15 | 42.62861 | -89.65122 | 37000 ft | 492 kts | 63° |
| 2026-05-07 01:15 | 42.65890 | -89.56840 | 37000 ft | 492 kts | 63° |
| 2026-05-07 01:16 | 42.68929 | -89.48498 | 37000 ft | 492 kts | 63° |
| 2026-05-07 01:16 | 42.71960 | -89.40155 | 37000 ft | 492 kts | 64° |
| 2026-05-07 01:17 | 42.74972 | -89.31843 | 37000 ft | 492 kts | 64° |
| 2026-05-07 01:17 | 42.77994 | -89.23476 | 37000 ft | 492 kts | 64° |
| 2026-05-07 01:18 | 42.81012 | -89.15098 | 37000 ft | 492 kts | 64° |
| 2026-05-07 01:18 | 42.84020 | -89.06721 | 37000 ft | 492 kts | 64° |
| 2026-05-07 01:19 | 42.87002 | -88.98392 | 37000 ft | 492 kts | 64° |
| 2026-05-07 01:19 | 42.90002 | -88.89987 | 37001 ft | 492 kts | 64° |
| 2026-05-07 01:20 | 42.92989 | -88.81594 | 37000 ft | 492 kts | 64° |
| 2026-05-07 01:20 | 42.95957 | -88.73227 | 37000 ft | 492 kts | 64° |
| 2026-05-07 01:21 | 42.98934 | -88.64811 | 37000 ft | 492 kts | 64° |
| 2026-05-07 01:21 | 43.01909 | -88.56375 | 37000 ft | 492 kts | 64° |
| 2026-05-07 01:22 | 43.04876 | -88.47934 | 37000 ft | 492 kts | 64° |
| 2026-05-07 01:22 | 43.07823 | -88.39526 | 37000 ft | 492 kts | 64° |
| 2026-05-07 01:23 | 43.10774 | -88.31082 | 37000 ft | 492 kts | 64° |
| 2026-05-07 01:23 | 43.13678 | -88.22631 | 37000 ft | 492 kts | 65° |
| 2026-05-07 01:24 | 43.16463 | -88.14056 | 37000 ft | 492 kts | 66° |
| 2026-05-07 01:24 | 43.19229 | -88.05464 | 37000 ft | 492 kts | 66° |
| 2026-05-07 01:25 | 43.22010 | -87.96874 | 37000 ft | 491 kts | 66° |
| 2026-05-07 01:25 | 43.24774 | -87.88352 | 37000 ft | 491 kts | 66° |
| 2026-05-07 01:26 | 43.27538 | -87.79810 | 37000 ft | 491 kts | 66° |
| 2026-05-07 01:26 | 43.30305 | -87.71228 | 37000 ft | 491 kts | 66° |
| 2026-05-07 01:27 | 43.33067 | -87.62632 | 37000 ft | 491 kts | 66° |
| 2026-05-07 01:27 | 43.35823 | -87.54026 | 37000 ft | 491 kts | 66° |
| 2026-05-07 01:28 | 43.38554 | -87.45470 | 37000 ft | 491 kts | 66° |
| 2026-05-07 01:28 | 43.41293 | -87.36859 | 37000 ft | 491 kts | 66° |
| 2026-05-07 01:29 | 43.44031 | -87.28227 | 37000 ft | 491 kts | 66° |
| 2026-05-07 01:29 | 43.46745 | -87.19642 | 37000 ft | 491 kts | 66° |
| 2026-05-07 01:30 | 43.49469 | -87.10996 | 37001 ft | 491 kts | 66° |
| 2026-05-07 01:30 | 43.52189 | -87.02334 | 37000 ft | 491 kts | 66° |
| 2026-05-07 01:31 | 43.54893 | -86.93692 | 37000 ft | 491 kts | 66° |
| 2026-05-07 01:31 | 43.57580 | -86.85082 | 37000 ft | 491 kts | 66° |
| 2026-05-07 01:32 | 43.60274 | -86.76417 | 37000 ft | 491 kts | 66° |
| 2026-05-07 01:32 | 43.62965 | -86.67733 | 37000 ft | 491 kts | 67° |
| 2026-05-07 01:33 | 43.65636 | -86.59084 | 37000 ft | 491 kts | 67° |
| 2026-05-07 01:33 | 43.67864 | -86.51850 | 37000 ft | 491 kts | 67° |
| 2026-05-07 01:34 | 43.70972 | -86.41721 | 37000 ft | 491 kts | 67° |
| 2026-05-07 01:34 | 43.73187 | -86.34480 | 37000 ft | 491 kts | 67° |
| 2026-05-07 01:35 | 43.75847 | -86.25755 | 37000 ft | 491 kts | 67° |
| 2026-05-07 01:35 | 43.78947 | -86.15550 | 37000 ft | 492 kts | 67° |
| 2026-05-07 01:36 | 43.81148 | -86.08282 | 37000 ft | 492 kts | 67° |
| 2026-05-07 01:36 | 43.83768 | -85.99600 | 37000 ft | 492 kts | 67° |
| 2026-05-07 01:37 | 43.86403 | -85.90842 | 37000 ft | 492 kts | 67° |
| 2026-05-07 01:37 | 43.89034 | -85.82065 | 37000 ft | 492 kts | 67° |
| 2026-05-07 01:38 | 43.91637 | -85.73352 | 37000 ft | 492 kts | 67° |
| 2026-05-07 01:38 | 43.94257 | -85.64551 | 37000 ft | 492 kts | 68° |
| 2026-05-07 01:39 | 43.96869 | -85.55749 | 37000 ft | 492 kts | 68° |
| 2026-05-07 01:39 | 43.99458 | -85.46991 | 37000 ft | 492 kts | 68° |
| 2026-05-07 01:40 | 44.02056 | -85.38173 | 37000 ft | 493 kts | 68° |
| 2026-05-07 01:40 | 44.04649 | -85.29342 | 37000 ft | 493 kts | 68° |
| 2026-05-07 01:41 | 44.07219 | -85.20558 | 37000 ft | 493 kts | 68° |
| 2026-05-07 01:41 | 44.09793 | -85.11729 | 37000 ft | 492 kts | 68° |
| 2026-05-07 01:42 | 44.12365 | -85.02877 | 37000 ft | 492 kts | 68° |
| 2026-05-07 01:42 | 44.14931 | -84.94016 | 37000 ft | 492 kts | 68° |
| 2026-05-07 01:43 | 44.17473 | -84.85201 | 37000 ft | 492 kts | 68° |
| 2026-05-07 01:43 | 44.20026 | -84.76323 | 37000 ft | 492 kts | 68° |
| 2026-05-07 01:44 | 44.22563 | -84.67467 | 37000 ft | 492 kts | 68° |
| 2026-05-07 01:44 | 44.25105 | -84.58560 | 37000 ft | 492 kts | 68° |
| 2026-05-07 01:45 | 44.27617 | -84.49727 | 37000 ft | 493 kts | 68° |
| 2026-05-07 01:45 | 44.30142 | -84.40819 | 37000 ft | 493 kts | 68° |
| 2026-05-07 01:46 | 44.32660 | -84.31900 | 37000 ft | 493 kts | 68° |
| 2026-05-07 01:46 | 44.35159 | -84.23020 | 37000 ft | 493 kts | 68° |
| 2026-05-07 01:47 | 44.37661 | -84.14096 | 37000 ft | 493 kts | 69° |
| 2026-05-07 01:47 | 44.40157 | -84.05158 | 37000 ft | 492 kts | 69° |
| 2026-05-07 01:48 | 44.42631 | -83.96268 | 37000 ft | 492 kts | 69° |
| 2026-05-07 01:48 | 44.45113 | -83.87317 | 37000 ft | 492 kts | 69° |
| 2026-05-07 01:49 | 44.47571 | -83.78422 | 37000 ft | 492 kts | 69° |
| 2026-05-07 01:49 | 44.50034 | -83.69474 | 37000 ft | 492 kts | 69° |
| 2026-05-07 01:50 | 44.52488 | -83.60527 | 37000 ft | 492 kts | 69° |
| 2026-05-07 01:50 | 44.54939 | -83.51557 | 37000 ft | 492 kts | 69° |
| 2026-05-07 01:51 | 44.57369 | -83.42630 | 37000 ft | 491 kts | 69° |
| 2026-05-07 01:51 | 44.59802 | -83.33661 | 37000 ft | 491 kts | 69° |
| 2026-05-07 01:52 | 44.62268 | -83.24697 | 36997 ft | 491 kts | 66° |
| 2026-05-07 01:52 | 44.65816 | -83.16584 | 37004 ft | 490 kts | 51° |
| 2026-05-07 01:53 | 44.70184 | -83.09210 | 37000 ft | 491 kts | 49° |
| 2026-05-07 01:53 | 44.74673 | -83.01959 | 37000 ft | 491 kts | 49° |
| 2026-05-07 01:54 | 44.79142 | -82.94727 | 37000 ft | 491 kts | 49° |
| 2026-05-07 01:54 | 44.83600 | -82.87444 | 37000 ft | 491 kts | 49° |
| 2026-05-07 01:55 | 44.88029 | -82.80163 | 37000 ft | 491 kts | 49° |
| 2026-05-07 01:55 | 44.92469 | -82.72841 | 37000 ft | 491 kts | 49° |
| 2026-05-07 01:56 | 44.96908 | -82.65505 | 37000 ft | 491 kts | 49° |
| 2026-05-07 01:56 | 45.01347 | -82.58152 | 37000 ft | 491 kts | 49° |
| 2026-05-07 01:57 | 45.05752 | -82.50836 | 37000 ft | 491 kts | 49° |
| 2026-05-07 01:57 | 45.10178 | -82.43465 | 37000 ft | 491 kts | 49° |
| 2026-05-07 01:58 | 45.14604 | -82.36074 | 37000 ft | 491 kts | 50° |
| 2026-05-07 01:58 | 45.18996 | -82.28721 | 37000 ft | 491 kts | 50° |
| 2026-05-07 01:59 | 45.23419 | -82.21297 | 37000 ft | 491 kts | 50° |
| 2026-05-07 01:59 | 45.27800 | -82.13925 | 37000 ft | 491 kts | 50° |
| 2026-05-07 02:00 | 45.32209 | -82.06485 | 37000 ft | 491 kts | 50° |
| 2026-05-07 02:00 | 45.36613 | -81.99035 | 37000 ft | 491 kts | 50° |
| 2026-05-07 02:01 | 45.40977 | -81.91632 | 37000 ft | 491 kts | 50° |
| 2026-05-07 02:01 | 45.45372 | -81.84158 | 37000 ft | 491 kts | 50° |
| 2026-05-07 02:02 | 45.49757 | -81.76679 | 37000 ft | 491 kts | 50° |
| 2026-05-07 02:02 | 45.54107 | -81.69241 | 37000 ft | 491 kts | 50° |
| 2026-05-07 02:03 | 45.58489 | -81.61728 | 37000 ft | 491 kts | 50° |
| 2026-05-07 02:03 | 45.62833 | -81.54261 | 37000 ft | 491 kts | 50° |
| 2026-05-07 02:04 | 45.67200 | -81.46733 | 37000 ft | 491 kts | 50° |
| 2026-05-07 02:04 | 45.71559 | -81.39200 | 37000 ft | 491 kts | 50° |
| 2026-05-07 02:05 | 45.75915 | -81.31651 | 37000 ft | 491 kts | 50° |
| 2026-05-07 02:05 | 45.80235 | -81.24143 | 37000 ft | 491 kts | 50° |
| 2026-05-07 02:06 | 45.84584 | -81.16566 | 37000 ft | 491 kts | 50° |
| 2026-05-07 02:06 | 45.88926 | -81.08980 | 37000 ft | 491 kts | 50° |
| 2026-05-07 02:07 | 45.93232 | -81.01436 | 37000 ft | 491 kts | 50° |
| 2026-05-07 02:07 | 45.99728 | -80.90017 | 37000 ft | 491 kts | 51° |
| 2026-05-07 02:08 | 46.04047 | -80.82399 | 37000 ft | 491 kts | 51° |
| 2026-05-07 02:08 | 46.08343 | -80.74802 | 37000 ft | 491 kts | 51° |
| 2026-05-07 02:09 | 46.12652 | -80.67160 | 37000 ft | 491 kts | 51° |
| 2026-05-07 02:09 | 46.16960 | -80.59497 | 37000 ft | 491 kts | 51° |
| 2026-05-07 02:10 | 46.21241 | -80.51864 | 37000 ft | 491 kts | 51° |
| 2026-05-07 02:10 | 46.25539 | -80.44177 | 37000 ft | 491 kts | 51° |
| 2026-05-07 02:11 | 46.29833 | -80.36478 | 37000 ft | 491 kts | 51° |
| 2026-05-07 02:11 | 46.34121 | -80.28768 | 37000 ft | 491 kts | 51° |
| 2026-05-07 02:12 | 46.38382 | -80.21084 | 37000 ft | 491 kts | 51° |
| 2026-05-07 02:12 | 46.42660 | -80.13349 | 37000 ft | 491 kts | 51° |
| 2026-05-07 02:13 | 46.46935 | -80.05599 | 37000 ft | 491 kts | 51° |
| 2026-05-07 02:13 | 46.50982 | -79.97664 | 37001 ft | 491 kts | 57° |
| 2026-05-07 02:14 | 46.54682 | -79.89302 | 37000 ft | 491 kts | 57° |
| 2026-05-07 02:14 | 46.58319 | -79.80868 | 37000 ft | 492 kts | 58° |
| 2026-05-07 02:15 | 46.61941 | -79.72427 | 37000 ft | 492 kts | 58° |
| 2026-05-07 02:15 | 46.65552 | -79.64006 | 37000 ft | 492 kts | 58° |
| 2026-05-07 02:16 | 46.68579 | -79.56940 | 37000 ft | 492 kts | 58° |
| 2026-05-07 02:16 | 46.72200 | -79.48464 | 37000 ft | 492 kts | 58° |
| 2026-05-07 02:17 | 46.75796 | -79.40021 | 37000 ft | 492 kts | 58° |
| 2026-05-07 02:17 | 46.79406 | -79.31519 | 37000 ft | 492 kts | 58° |
| 2026-05-07 02:18 | 46.83011 | -79.23001 | 37000 ft | 492 kts | 58° |
| 2026-05-07 02:18 | 46.86580 | -79.14544 | 37000 ft | 492 kts | 58° |
| 2026-05-07 02:19 | 46.90167 | -79.06015 | 37000 ft | 492 kts | 58° |
| 2026-05-07 02:19 | 46.93753 | -78.97464 | 37000 ft | 492 kts | 58° |
| 2026-05-07 02:20 | 46.97331 | -78.88903 | 37000 ft | 492 kts | 58° |
| 2026-05-07 02:20 | 47.00878 | -78.80393 | 37000 ft | 492 kts | 58° |
| 2026-05-07 02:21 | 47.04441 | -78.71817 | 37000 ft | 492 kts | 58° |
| 2026-05-07 02:21 | 47.07993 | -78.63239 | 37000 ft | 492 kts | 58° |
| 2026-05-07 02:22 | 47.11543 | -78.54641 | 37000 ft | 492 kts | 59° |
| 2026-05-07 02:22 | 47.15064 | -78.46085 | 37000 ft | 492 kts | 59° |
| 2026-05-07 02:23 | 47.18603 | -78.37458 | 37000 ft | 492 kts | 59° |
| 2026-05-07 02:23 | 47.22140 | -78.28810 | 37000 ft | 492 kts | 59° |
| 2026-05-07 02:24 | 47.25646 | -78.20209 | 37000 ft | 492 kts | 59° |
| 2026-05-07 02:24 | 47.29162 | -78.11557 | 37000 ft | 492 kts | 59° |
| 2026-05-07 02:25 | 47.32675 | -78.02885 | 37000 ft | 492 kts | 59° |
| 2026-05-07 02:25 | 47.36192 | -77.94174 | 37000 ft | 492 kts | 59° |
| 2026-05-07 02:26 | 47.39671 | -77.85530 | 37000 ft | 492 kts | 59° |
| 2026-05-07 02:26 | 47.43167 | -77.76817 | 37000 ft | 492 kts | 59° |
| 2026-05-07 02:27 | 47.46632 | -77.68151 | 37000 ft | 492 kts | 59° |
| 2026-05-07 02:27 | 47.50117 | -77.59410 | 37000 ft | 492 kts | 59° |
| 2026-05-07 02:28 | 47.53590 | -77.50668 | 37000 ft | 492 kts | 59° |
| 2026-05-07 02:28 | 47.57046 | -77.41942 | 37000 ft | 492 kts | 59° |
| 2026-05-07 02:29 | 47.60511 | -77.33167 | 37000 ft | 492 kts | 59° |
| 2026-05-07 02:29 | 47.63966 | -77.24387 | 37000 ft | 492 kts | 59° |
| 2026-05-07 02:30 | 47.67391 | -77.15654 | 37000 ft | 493 kts | 59° |
| 2026-05-07 02:30 | 47.70834 | -77.06845 | 37000 ft | 493 kts | 60° |
| 2026-05-07 02:31 | 47.74273 | -76.98021 | 37000 ft | 492 kts | 60° |
| 2026-05-07 02:31 | 47.77689 | -76.89226 | 37000 ft | 493 kts | 60° |
| 2026-05-07 02:32 | 47.81116 | -76.80373 | 37000 ft | 493 kts | 60° |
| 2026-05-07 02:32 | 47.84533 | -76.71517 | 37000 ft | 493 kts | 60° |
| 2026-05-07 02:33 | 47.87917 | -76.62716 | 37000 ft | 493 kts | 60° |
| 2026-05-07 02:33 | 47.91325 | -76.53824 | 37000 ft | 493 kts | 60° |
| 2026-05-07 02:34 | 47.94728 | -76.44916 | 37000 ft | 493 kts | 60° |
| 2026-05-07 02:34 | 47.98096 | -76.36070 | 37000 ft | 493 kts | 60° |
| 2026-05-07 02:35 | 48.01486 | -76.27137 | 37000 ft | 493 kts | 60° |
| 2026-05-07 02:35 | 48.04863 | -76.18207 | 37000 ft | 493 kts | 60° |
| 2026-05-07 02:36 | 48.08217 | -76.09308 | 37000 ft | 493 kts | 60° |
| 2026-05-07 02:36 | 48.11586 | -76.00342 | 37000 ft | 493 kts | 60° |
| 2026-05-07 02:37 | 48.14942 | -75.91376 | 37000 ft | 493 kts | 60° |
| 2026-05-07 02:37 | 48.18277 | -75.82438 | 37000 ft | 493 kts | 60° |
| 2026-05-07 02:38 | 48.21607 | -75.73484 | 37000 ft | 493 kts | 60° |
| 2026-05-07 02:38 | 48.24947 | -75.64471 | 37000 ft | 493 kts | 61° |
| 2026-05-07 02:39 | 48.28270 | -75.55474 | 37000 ft | 493 kts | 61° |
| 2026-05-07 02:39 | 48.31573 | -75.46500 | 37000 ft | 493 kts | 61° |
| 2026-05-07 02:40 | 48.34889 | -75.37462 | 37000 ft | 493 kts | 61° |
| 2026-05-07 02:40 | 48.38197 | -75.28414 | 37000 ft | 493 kts | 61° |
| 2026-05-07 02:41 | 48.41476 | -75.19413 | 37000 ft | 493 kts | 61° |
| 2026-05-07 02:41 | 48.44772 | -75.10334 | 37000 ft | 493 kts | 61° |
| 2026-05-07 02:42 | 48.48039 | -75.01304 | 37000 ft | 493 kts | 61° |
| 2026-05-07 02:42 | 48.51322 | -74.92199 | 37000 ft | 493 kts | 61° |
| 2026-05-07 02:43 | 48.54590 | -74.83103 | 37000 ft | 493 kts | 61° |
| 2026-05-07 02:43 | 48.57834 | -74.74043 | 37000 ft | 493 kts | 62° |
| 2026-05-07 02:44 | 48.61091 | -74.64913 | 37000 ft | 493 kts | 62° |
| 2026-05-07 02:44 | 48.64344 | -74.55765 | 37000 ft | 493 kts | 62° |
| 2026-05-07 02:45 | 48.67567 | -74.46668 | 37000 ft | 493 kts | 62° |
| 2026-05-07 02:45 | 48.70803 | -74.37504 | 37000 ft | 493 kts | 62° |
| 2026-05-07 02:46 | 48.74038 | -74.28307 | 37000 ft | 493 kts | 62° |
| 2026-05-07 02:46 | 48.77247 | -74.19155 | 37000 ft | 494 kts | 62° |
| 2026-05-07 02:47 | 48.80477 | -74.09909 | 37000 ft | 494 kts | 62° |
| 2026-05-07 02:47 | 48.83666 | -74.00748 | 37000 ft | 494 kts | 62° |
| 2026-05-07 02:48 | 48.86878 | -73.91488 | 37000 ft | 493 kts | 62° |
| 2026-05-07 02:48 | 48.90051 | -73.82306 | 37000 ft | 493 kts | 62° |
| 2026-05-07 02:49 | 48.93235 | -73.73059 | 37000 ft | 493 kts | 62° |
| 2026-05-07 02:49 | 48.96418 | -73.63782 | 37000 ft | 493 kts | 62° |
| 2026-05-07 02:50 | 48.99591 | -73.54505 | 37000 ft | 493 kts | 62° |
| 2026-05-07 02:50 | 49.02739 | -73.45262 | 37000 ft | 493 kts | 62° |
| 2026-05-07 02:51 | 49.05898 | -73.35955 | 37000 ft | 493 kts | 63° |
| 2026-05-07 02:51 | 49.09029 | -73.26698 | 37000 ft | 493 kts | 63° |
| 2026-05-07 02:52 | 49.12163 | -73.17396 | 37000 ft | 493 kts | 63° |
| 2026-05-07 02:52 | 49.15275 | -73.08129 | 37000 ft | 492 kts | 63° |
| 2026-05-07 02:53 | 49.18498 | -72.98904 | 37003 ft | 492 kts | 59° |
| 2026-05-07 02:53 | 49.22081 | -72.89954 | 37000 ft | 492 kts | 58° |
| 2026-05-07 02:54 | 49.25695 | -72.81098 | 37000 ft | 492 kts | 58° |
| 2026-05-07 02:54 | 49.29331 | -72.72181 | 37001 ft | 492 kts | 58° |
| 2026-05-07 02:55 | 49.32925 | -72.63323 | 37001 ft | 492 kts | 58° |
| 2026-05-07 02:55 | 49.36539 | -72.54370 | 37001 ft | 492 kts | 58° |
| 2026-05-07 02:56 | 49.40114 | -72.45483 | 37000 ft | 492 kts | 58° |
| 2026-05-07 02:56 | 49.43716 | -72.36499 | 37000 ft | 492 kts | 58° |
| 2026-05-07 02:57 | 49.47303 | -72.27520 | 37000 ft | 492 kts | 58° |
| 2026-05-07 02:57 | 49.50870 | -72.18565 | 37001 ft | 492 kts | 58° |
| 2026-05-07 02:58 | 49.54439 | -72.09570 | 37000 ft | 491 kts | 58° |
| 2026-05-07 02:58 | 49.58005 | -72.00554 | 37001 ft | 492 kts | 58° |
| 2026-05-07 02:59 | 49.61547 | -71.91567 | 37000 ft | 492 kts | 58° |
| 2026-05-07 02:59 | 49.65102 | -71.82518 | 37000 ft | 493 kts | 59° |
| 2026-05-07 03:00 | 49.68634 | -71.73495 | 37000 ft | 493 kts | 59° |
| 2026-05-07 03:00 | 49.72174 | -71.64420 | 37000 ft | 493 kts | 59° |
| 2026-05-07 03:01 | 49.75114 | -71.56860 | 37000 ft | 493 kts | 59° |
| 2026-05-07 03:01 | 49.78643 | -71.47758 | 37000 ft | 493 kts | 59° |
| 2026-05-07 03:02 | 49.82170 | -71.38627 | 37000 ft | 492 kts | 59° |
| 2026-05-07 03:02 | 49.85683 | -71.29502 | 37000 ft | 493 kts | 59° |
| 2026-05-07 03:03 | 49.89172 | -71.20406 | 37000 ft | 493 kts | 59° |
| 2026-05-07 03:03 | 49.92675 | -71.11241 | 37000 ft | 493 kts | 59° |
| 2026-05-07 03:04 | 49.96173 | -71.02059 | 37000 ft | 493 kts | 59° |
| 2026-05-07 03:04 | 49.99647 | -70.92907 | 37000 ft | 493 kts | 59° |
| 2026-05-07 03:05 | 50.03121 | -70.83722 | 37000 ft | 492 kts | 59° |
| 2026-05-07 03:05 | 50.06594 | -70.74508 | 37000 ft | 493 kts | 59° |
| 2026-05-07 03:06 | 50.10038 | -70.65338 | 37000 ft | 493 kts | 59° |
| 2026-05-07 03:06 | 50.13502 | -70.56081 | 37000 ft | 494 kts | 59° |
| 2026-05-07 03:07 | 50.16943 | -70.46856 | 37000 ft | 494 kts | 59° |
| 2026-05-07 03:07 | 50.20399 | -70.37554 | 37000 ft | 494 kts | 60° |
| 2026-05-07 03:08 | 50.23845 | -70.28246 | 37000 ft | 494 kts | 60° |
| 2026-05-07 03:08 | 50.27285 | -70.18921 | 37000 ft | 494 kts | 60° |
| 2026-05-07 03:09 | 50.30696 | -70.09642 | 37001 ft | 494 kts | 60° |
| 2026-05-07 03:09 | 50.34120 | -70.00292 | 37000 ft | 494 kts | 60° |
| 2026-05-07 03:10 | 50.37514 | -69.90994 | 37000 ft | 494 kts | 60° |
| 2026-05-07 03:10 | 50.40927 | -69.81606 | 37000 ft | 495 kts | 60° |
| 2026-05-07 03:11 | 50.44328 | -69.72219 | 37001 ft | 494 kts | 60° |
| 2026-05-07 03:11 | 50.47704 | -69.62867 | 37001 ft | 494 kts | 60° |
| 2026-05-07 03:12 | 50.51091 | -69.53448 | 37001 ft | 494 kts | 60° |
| 2026-05-07 03:12 | 50.54467 | -69.44027 | 37000 ft | 494 kts | 60° |
| 2026-05-07 03:13 | 50.57814 | -69.34652 | 37001 ft | 494 kts | 60° |
| 2026-05-07 03:13 | 50.61151 | -69.25269 | 37001 ft | 493 kts | 60° |
| 2026-05-07 03:14 | 50.64511 | -69.15789 | 37001 ft | 493 kts | 60° |
| 2026-05-07 03:15 | 50.69504 | -69.01634 | 37000 ft | 494 kts | 61° |
| 2026-05-07 03:15 | 50.72845 | -68.92120 | 37001 ft | 494 kts | 61° |
| 2026-05-07 03:16 | 50.76150 | -68.82672 | 37000 ft | 493 kts | 61° |
| 2026-05-07 03:16 | 50.79461 | -68.73170 | 37000 ft | 494 kts | 61° |
| 2026-05-07 03:17 | 50.82768 | -68.63645 | 37000 ft | 493 kts | 61° |
| 2026-05-07 03:17 | 50.86065 | -68.54114 | 37001 ft | 493 kts | 61° |
| 2026-05-07 03:18 | 50.89337 | -68.44618 | 37000 ft | 493 kts | 61° |
| 2026-05-07 03:18 | 50.92629 | -68.35029 | 36999 ft | 494 kts | 61° |
| 2026-05-07 03:19 | 50.95912 | -68.25428 | 37000 ft | 495 kts | 61° |
| 2026-05-07 03:19 | 50.99164 | -68.15883 | 37000 ft | 495 kts | 62° |
| 2026-05-07 03:20 | 51.02437 | -68.06240 | 37000 ft | 495 kts | 62° |
| 2026-05-07 03:20 | 51.05684 | -67.96636 | 37000 ft | 495 kts | 62° |
| 2026-05-07 03:21 | 51.08940 | -67.86969 | 37001 ft | 495 kts | 62° |
| 2026-05-07 03:21 | 51.12176 | -67.77321 | 37001 ft | 493 kts | 62° |
| 2026-05-07 03:22 | 51.15400 | -67.67676 | 37000 ft | 493 kts | 62° |
| 2026-05-07 03:22 | 51.18600 | -67.58065 | 37000 ft | 493 kts | 62° |
| 2026-05-07 03:23 | 51.21818 | -67.48362 | 37000 ft | 493 kts | 62° |
| 2026-05-07 03:23 | 51.25008 | -67.38704 | 37000 ft | 495 kts | 62° |
| 2026-05-07 03:24 | 51.28211 | -67.28969 | 37001 ft | 494 kts | 62° |
| 2026-05-07 03:24 | 51.31406 | -67.19224 | 37000 ft | 495 kts | 62° |
| 2026-05-07 03:25 | 51.34596 | -67.09453 | 37001 ft | 494 kts | 62° |
| 2026-05-07 03:25 | 51.37750 | -66.99755 | 37001 ft | 494 kts | 62° |
| 2026-05-07 03:26 | 51.40912 | -66.89992 | 37000 ft | 493 kts | 62° |
| 2026-05-07 03:26 | 51.44071 | -66.80202 | 37000 ft | 494 kts | 63° |
| 2026-05-07 03:27 | 51.47225 | -66.70390 | 37000 ft | 494 kts | 63° |
| 2026-05-07 03:27 | 51.50343 | -66.60647 | 37000 ft | 494 kts | 63° |
| 2026-05-07 03:28 | 51.53487 | -66.50787 | 37000 ft | 495 kts | 63° |
| 2026-05-07 03:28 | 51.56616 | -66.40933 | 37001 ft | 494 kts | 63° |
| 2026-05-07 03:29 | 51.59736 | -66.31068 | 37000 ft | 494 kts | 63° |
| 2026-05-07 03:29 | 51.62832 | -66.21241 | 37000 ft | 494 kts | 63° |
| 2026-05-07 03:30 | 51.65940 | -66.11336 | 37000 ft | 494 kts | 63° |
| 2026-05-07 03:30 | 51.69014 | -66.01499 | 37000 ft | 494 kts | 63° |
| 2026-05-07 03:31 | 51.72106 | -65.91565 | 37000 ft | 494 kts | 63° |
| 2026-05-07 03:31 | 51.75186 | -65.81628 | 37000 ft | 494 kts | 63° |
| 2026-05-07 03:32 | 51.78239 | -65.71736 | 37000 ft | 495 kts | 63° |
| 2026-05-07 03:32 | 51.81302 | -65.61772 | 37000 ft | 494 kts | 63° |
| 2026-05-07 03:33 | 51.84360 | -65.51785 | 37000 ft | 494 kts | 63° |
| 2026-05-07 03:33 | 51.87391 | -65.41846 | 37000 ft | 494 kts | 64° |
| 2026-05-07 03:34 | 51.90436 | -65.31818 | 37000 ft | 494 kts | 64° |
| 2026-05-07 03:34 | 51.93441 | -65.21881 | 37000 ft | 494 kts | 64° |
| 2026-05-07 03:35 | 51.96463 | -65.11846 | 37000 ft | 494 kts | 64° |
| 2026-05-07 03:35 | 51.99476 | -65.01798 | 37000 ft | 494 kts | 64° |
| 2026-05-07 03:36 | 52.02484 | -64.91762 | 37000 ft | 494 kts | 64° |
| 2026-05-07 03:36 | 52.05486 | -64.81750 | 37000 ft | 495 kts | 64° |
| 2026-05-07 03:37 | 52.08492 | -64.71680 | 37000 ft | 494 kts | 64° |
| 2026-05-07 03:37 | 52.11491 | -64.61587 | 37000 ft | 495 kts | 64° |
| 2026-05-07 03:38 | 52.14459 | -64.51551 | 37000 ft | 495 kts | 64° |
| 2026-05-07 03:38 | 52.17439 | -64.41433 | 37000 ft | 494 kts | 64° |
| 2026-05-07 03:39 | 52.20404 | -64.31321 | 37000 ft | 494 kts | 64° |
| 2026-05-07 03:39 | 52.23342 | -64.21263 | 37000 ft | 494 kts | 64° |
| 2026-05-07 03:40 | 52.26293 | -64.11113 | 37000 ft | 493 kts | 64° |
| 2026-05-07 03:40 | 52.29232 | -64.00964 | 37000 ft | 493 kts | 64° |
| 2026-05-07 03:41 | 52.32144 | -63.90863 | 37000 ft | 494 kts | 65° |
| 2026-05-07 03:41 | 52.35064 | -63.80690 | 37000 ft | 493 kts | 65° |
| 2026-05-07 03:42 | 52.37978 | -63.70495 | 37000 ft | 494 kts | 65° |
| 2026-05-07 03:42 | 52.40395 | -63.62007 | 37000 ft | 494 kts | 65° |
| 2026-05-07 03:43 | 52.43279 | -63.51837 | 37000 ft | 494 kts | 65° |
| 2026-05-07 03:43 | 52.46168 | -63.41603 | 37000 ft | 494 kts | 65° |
| 2026-05-07 03:44 | 52.49055 | -63.31335 | 37000 ft | 494 kts | 65° |
| 2026-05-07 03:44 | 52.51907 | -63.21145 | 37000 ft | 494 kts | 65° |
| 2026-05-07 03:45 | 52.54773 | -63.10860 | 37000 ft | 494 kts | 65° |
| 2026-05-07 03:45 | 52.57625 | -63.00578 | 37000 ft | 494 kts | 65° |
| 2026-05-07 03:46 | 52.60468 | -62.90285 | 37000 ft | 493 kts | 65° |
| 2026-05-07 03:46 | 52.63282 | -62.80051 | 37000 ft | 493 kts | 65° |
| 2026-05-07 03:47 | 52.66106 | -62.69735 | 37000 ft | 493 kts | 65° |
| 2026-05-07 03:47 | 52.68903 | -62.59473 | 37000 ft | 493 kts | 66° |
| 2026-05-07 03:48 | 52.71705 | -62.49147 | 37000 ft | 493 kts | 66° |
| 2026-05-07 03:48 | 52.74500 | -62.38799 | 37000 ft | 493 kts | 66° |
| 2026-05-07 03:49 | 52.77269 | -62.28500 | 37000 ft | 493 kts | 66° |
| 2026-05-07 03:49 | 52.80050 | -62.18110 | 37000 ft | 493 kts | 66° |
| 2026-05-07 03:50 | 52.82815 | -62.07734 | 37000 ft | 493 kts | 66° |
| 2026-05-07 03:50 | 52.85572 | -61.97343 | 37000 ft | 493 kts | 66° |
| 2026-05-07 03:51 | 52.88302 | -61.87003 | 37000 ft | 493 kts | 66° |
| 2026-05-07 03:51 | 52.91035 | -61.76606 | 37000 ft | 491 kts | 66° |
| 2026-05-07 03:52 | 52.93758 | -61.66197 | 37000 ft | 492 kts | 66° |
| 2026-05-07 03:52 | 52.96477 | -61.55759 | 37000 ft | 492 kts | 66° |
| 2026-05-07 03:53 | 52.99168 | -61.45378 | 37000 ft | 492 kts | 66° |
| 2026-05-07 03:53 | 53.01867 | -61.34920 | 37001 ft | 492 kts | 66° |
| 2026-05-07 03:54 | 53.04552 | -61.24468 | 37001 ft | 491 kts | 67° |
| 2026-05-07 03:54 | 53.07211 | -61.14068 | 37000 ft | 490 kts | 67° |
| 2026-05-07 03:55 | 53.09870 | -61.03617 | 37000 ft | 490 kts | 67° |
| 2026-05-07 03:55 | 53.12524 | -60.93139 | 37000 ft | 490 kts | 67° |
| 2026-05-07 03:56 | 53.15170 | -60.82641 | 37000 ft | 491 kts | 67° |
| 2026-05-07 03:56 | 53.17796 | -60.72177 | 37000 ft | 492 kts | 67° |
| 2026-05-07 03:57 | 53.20426 | -60.61645 | 37000 ft | 492 kts | 67° |
| 2026-05-07 03:57 | 53.23059 | -60.51051 | 37001 ft | 491 kts | 67° |
| 2026-05-07 03:58 | 53.25655 | -60.40555 | 37000 ft | 490 kts | 68° |
| 2026-05-07 03:58 | 53.28252 | -60.30002 | 37000 ft | 490 kts | 68° |
| 2026-05-07 03:59 | 53.30822 | -60.19512 | 37000 ft | 490 kts | 68° |
| 2026-05-07 03:59 | 53.33397 | -60.08952 | 37000 ft | 490 kts | 68° |
| 2026-05-07 04:00 | 53.35966 | -59.98364 | 37000 ft | 490 kts | 68° |
| 2026-05-07 04:00 | 53.38523 | -59.87774 | 37000 ft | 490 kts | 68° |
| 2026-05-07 04:01 | 53.41057 | -59.77230 | 37000 ft | 490 kts | 68° |
| 2026-05-07 04:01 | 53.43595 | -59.66614 | 37000 ft | 490 kts | 68° |
| 2026-05-07 04:02 | 53.46128 | -59.55971 | 37001 ft | 490 kts | 68° |
| 2026-05-07 04:02 | 53.48639 | -59.45364 | 37000 ft | 492 kts | 68° |
| 2026-05-07 04:03 | 53.51168 | -59.34631 | 37000 ft | 493 kts | 68° |
| 2026-05-07 04:03 | 53.53675 | -59.23938 | 37000 ft | 494 kts | 68° |
| 2026-05-07 04:04 | 53.56188 | -59.13166 | 37000 ft | 494 kts | 69° |
| 2026-05-07 04:04 | 53.58679 | -59.02433 | 37000 ft | 494 kts | 69° |
| 2026-05-07 04:05 | 53.61174 | -58.91625 | 37000 ft | 495 kts | 69° |
| 2026-05-07 04:05 | 53.63652 | -58.80839 | 37000 ft | 495 kts | 69° |
| 2026-05-07 04:06 | 53.66128 | -58.70008 | 37000 ft | 494 kts | 69° |
| 2026-05-07 04:06 | 53.68596 | -58.59156 | 37000 ft | 494 kts | 69° |
| 2026-05-07 04:07 | 53.71037 | -58.48365 | 36999 ft | 495 kts | 69° |
| 2026-05-07 04:07 | 53.73487 | -58.37479 | 37001 ft | 493 kts | 69° |
| 2026-05-07 04:08 | 53.75915 | -58.26638 | 37000 ft | 492 kts | 69° |
| 2026-05-07 04:08 | 53.78329 | -58.15800 | 37000 ft | 492 kts | 69° |
| 2026-05-07 04:09 | 53.80720 | -58.05008 | 37000 ft | 492 kts | 69° |
| 2026-05-07 04:09 | 53.83117 | -57.94138 | 37001 ft | 492 kts | 69° |
| 2026-05-07 04:10 | 53.85499 | -57.83274 | 37000 ft | 491 kts | 69° |
| 2026-05-07 04:10 | 53.87854 | -57.72476 | 37000 ft | 491 kts | 70° |
| 2026-05-07 04:11 | 53.90220 | -57.61575 | 37001 ft | 491 kts | 70° |
| 2026-05-07 04:11 | 53.92557 | -57.50745 | 37000 ft | 491 kts | 70° |
| 2026-05-07 04:12 | 53.94900 | -57.39836 | 37000 ft | 491 kts | 70° |
| 2026-05-07 04:12 | 53.97231 | -57.28917 | 37000 ft | 491 kts | 70° |
| 2026-05-07 04:13 | 53.99536 | -57.18067 | 37000 ft | 490 kts | 70° |
| 2026-05-07 04:13 | 54.01844 | -57.07143 | 37000 ft | 490 kts | 70° |
| 2026-05-07 04:14 | 54.04532 | -56.96505 | 37001 ft | 489 kts | 62° |
| 2026-05-07 04:14 | 54.07733 | -56.86331 | 37000 ft | 490 kts | 61° |
| 2026-05-07 04:15 | 54.11029 | -56.76153 | 37000 ft | 490 kts | 61° |
| 2026-05-07 04:15 | 54.14325 | -56.65951 | 37000 ft | 490 kts | 61° |
| 2026-05-07 04:16 | 54.17576 | -56.55803 | 37000 ft | 490 kts | 61° |
| 2026-05-07 04:16 | 54.20835 | -56.45566 | 37000 ft | 490 kts | 61° |
| 2026-05-07 04:17 | 54.24067 | -56.35364 | 37000 ft | 490 kts | 61° |
| 2026-05-07 04:17 | 54.27309 | -56.25089 | 37000 ft | 490 kts | 62° |
| 2026-05-07 04:18 | 54.30527 | -56.14850 | 37000 ft | 490 kts | 62° |
| 2026-05-07 04:18 | 54.33751 | -56.04548 | 37000 ft | 490 kts | 62° |
| 2026-05-07 04:19 | 54.36965 | -55.94233 | 37000 ft | 490 kts | 62° |
| 2026-05-07 04:19 | 54.40147 | -55.83974 | 37000 ft | 490 kts | 62° |
| 2026-05-07 04:20 | 54.43342 | -55.73633 | 37000 ft | 490 kts | 62° |
| 2026-05-07 04:20 | 54.46528 | -55.63274 | 37000 ft | 490 kts | 62° |
| 2026-05-07 04:21 | 54.51277 | -55.47748 | 37000 ft | 490 kts | 62° |
| 2026-05-07 04:21 | 54.54442 | -55.37347 | 37000 ft | 490 kts | 62° |
| 2026-05-07 04:22 | 54.57595 | -55.26937 | 37000 ft | 490 kts | 62° |
| 2026-05-07 04:22 | 54.60742 | -55.16502 | 37000 ft | 490 kts | 62° |
| 2026-05-07 04:23 | 54.63875 | -55.06070 | 37000 ft | 490 kts | 62° |
| 2026-05-07 04:23 | 54.66989 | -54.95654 | 37000 ft | 490 kts | 63° |
| 2026-05-07 04:24 | 54.70107 | -54.85177 | 37000 ft | 490 kts | 63° |
| 2026-05-07 04:24 | 54.73217 | -54.74679 | 37000 ft | 490 kts | 63° |
| 2026-05-07 04:25 | 54.76313 | -54.64186 | 37000 ft | 490 kts | 63° |
| 2026-05-07 04:25 | 54.79403 | -54.53665 | 37000 ft | 490 kts | 63° |
| 2026-05-07 04:26 | 54.82468 | -54.43179 | 37000 ft | 490 kts | 63° |
| 2026-05-07 04:26 | 54.85548 | -54.32599 | 37000 ft | 490 kts | 63° |
| 2026-05-07 04:27 | 54.88096 | -54.23809 | 37000 ft | 490 kts | 63° |
| 2026-05-07 04:27 | 54.91155 | -54.13210 | 37000 ft | 490 kts | 63° |
| 2026-05-07 04:28 | 54.94186 | -54.02662 | 37000 ft | 490 kts | 63° |
| 2026-05-07 04:28 | 54.97226 | -53.92035 | 37000 ft | 490 kts | 63° |
| 2026-05-07 04:29 | 55.00255 | -53.81398 | 37000 ft | 490 kts | 63° |
| 2026-05-07 04:29 | 55.03262 | -53.70791 | 37000 ft | 490 kts | 64° |
| 2026-05-07 04:30 | 55.06274 | -53.60116 | 37000 ft | 490 kts | 64° |
| 2026-05-07 04:30 | 55.09278 | -53.49418 | 37000 ft | 490 kts | 64° |
| 2026-05-07 04:31 | 55.12254 | -53.38776 | 37000 ft | 490 kts | 64° |
| 2026-05-07 04:31 | 55.15235 | -53.28063 | 37000 ft | 490 kts | 64° |
| 2026-05-07 04:32 | 55.18205 | -53.17338 | 37000 ft | 490 kts | 64° |
| 2026-05-07 04:32 | 55.21155 | -53.06640 | 37000 ft | 490 kts | 64° |
| 2026-05-07 04:33 | 55.24112 | -52.95864 | 37000 ft | 490 kts | 64° |
| 2026-05-07 04:33 | 55.27058 | -52.85078 | 37000 ft | 490 kts | 64° |
| 2026-05-07 04:34 | 55.29976 | -52.74343 | 37000 ft | 490 kts | 64° |
| 2026-05-07 04:34 | 55.32905 | -52.63515 | 37000 ft | 490 kts | 64° |
| 2026-05-07 04:35 | 55.35825 | -52.52672 | 37000 ft | 490 kts | 64° |
| 2026-05-07 04:35 | 55.38731 | -52.41831 | 37000 ft | 490 kts | 65° |
| 2026-05-07 04:36 | 55.41606 | -52.31051 | 37000 ft | 490 kts | 65° |
| 2026-05-07 04:36 | 55.44494 | -52.20170 | 37000 ft | 490 kts | 65° |
| 2026-05-07 04:37 | 55.47372 | -52.09278 | 37000 ft | 490 kts | 65° |
| 2026-05-07 04:37 | 55.50242 | -51.98360 | 37000 ft | 490 kts | 65° |
| 2026-05-07 04:38 | 55.53084 | -51.87499 | 37000 ft | 490 kts | 65° |
| 2026-05-07 04:38 | 55.55936 | -51.76546 | 37000 ft | 490 kts | 65° |
| 2026-05-07 04:39 | 55.58761 | -51.65640 | 37000 ft | 490 kts | 65° |
| 2026-05-07 04:39 | 55.61589 | -51.54673 | 37000 ft | 490 kts | 65° |
| 2026-05-07 04:40 | 55.64410 | -51.43680 | 37000 ft | 490 kts | 65° |
| 2026-05-07 04:40 | 55.67223 | -51.32661 | 37000 ft | 490 kts | 65° |
| 2026-05-07 04:41 | 55.70004 | -51.21716 | 37000 ft | 490 kts | 65° |
| 2026-05-07 04:41 | 55.72799 | -51.10660 | 37000 ft | 490 kts | 66° |
| 2026-05-07 04:42 | 55.75579 | -50.99608 | 37000 ft | 490 kts | 66° |
| 2026-05-07 04:42 | 55.78331 | -50.88615 | 37000 ft | 490 kts | 66° |
| 2026-05-07 04:43 | 55.81095 | -50.77513 | 37000 ft | 490 kts | 66° |
| 2026-05-07 04:43 | 55.83848 | -50.66405 | 37000 ft | 490 kts | 66° |
| 2026-05-07 04:44 | 55.86573 | -50.55354 | 37000 ft | 490 kts | 66° |
| 2026-05-07 04:44 | 55.89307 | -50.44205 | 37000 ft | 490 kts | 66° |
| 2026-05-07 04:45 | 55.92014 | -50.33116 | 37000 ft | 490 kts | 66° |
| 2026-05-07 04:45 | 55.94726 | -50.21946 | 37000 ft | 490 kts | 66° |
| 2026-05-07 04:46 | 55.97425 | -50.10776 | 37000 ft | 490 kts | 66° |
| 2026-05-07 04:46 | 55.99972 | -49.99485 | 37001 ft | 490 kts | 73° |
| 2026-05-07 04:47 | 56.01785 | -49.87818 | 37000 ft | 490 kts | 75° |
| 2026-05-07 04:47 | 56.03468 | -49.75985 | 37000 ft | 490 kts | 76° |
| 2026-05-07 04:48 | 56.05110 | -49.64203 | 37000 ft | 490 kts | 76° |
| 2026-05-07 04:48 | 56.06757 | -49.52358 | 37000 ft | 490 kts | 76° |
| 2026-05-07 04:49 | 56.08402 | -49.40498 | 37000 ft | 490 kts | 76° |
| 2026-05-07 04:49 | 56.10028 | -49.28708 | 37000 ft | 490 kts | 76° |
| 2026-05-07 04:50 | 56.11653 | -49.16828 | 37000 ft | 490 kts | 76° |
| 2026-05-07 04:50 | 56.13262 | -49.04963 | 37000 ft | 490 kts | 76° |
| 2026-05-07 04:51 | 56.14863 | -48.93067 | 37000 ft | 490 kts | 76° |
| 2026-05-07 04:51 | 56.16452 | -48.81167 | 37000 ft | 490 kts | 76° |
| 2026-05-07 04:52 | 56.18019 | -48.69332 | 37000 ft | 490 kts | 76° |
| 2026-05-07 04:52 | 56.19584 | -48.57416 | 37000 ft | 490 kts | 77° |
| 2026-05-07 04:53 | 56.21140 | -48.45476 | 37000 ft | 490 kts | 77° |
| 2026-05-07 04:53 | 56.22684 | -48.33531 | 37000 ft | 490 kts | 77° |
| 2026-05-07 04:54 | 56.24206 | -48.21653 | 37001 ft | 490 kts | 77° |
| 2026-05-07 04:54 | 56.25728 | -48.09678 | 37000 ft | 490 kts | 77° |
| 2026-05-07 04:55 | 56.27228 | -47.97780 | 37000 ft | 490 kts | 77° |
| 2026-05-07 04:55 | 56.28725 | -47.85799 | 37000 ft | 490 kts | 77° |
| 2026-05-07 04:56 | 56.30212 | -47.73801 | 37000 ft | 490 kts | 77° |
| 2026-05-07 04:56 | 56.31685 | -47.61809 | 37000 ft | 490 kts | 77° |
| 2026-05-07 04:57 | 56.33146 | -47.49816 | 37000 ft | 490 kts | 77° |
| 2026-05-07 04:57 | 56.34587 | -47.37876 | 37000 ft | 490 kts | 78° |
| 2026-05-07 04:58 | 56.36025 | -47.25863 | 37000 ft | 490 kts | 78° |
| 2026-05-07 04:58 | 56.37447 | -47.13874 | 37000 ft | 490 kts | 78° |
| 2026-05-07 04:59 | 56.38862 | -47.01841 | 37000 ft | 490 kts | 78° |
| 2026-05-07 04:59 | 56.40260 | -46.89838 | 37000 ft | 490 kts | 78° |
| 2026-05-07 05:00 | 56.41653 | -46.77778 | 37000 ft | 490 kts | 78° |
| 2026-05-07 05:00 | 56.43034 | -46.65708 | 37000 ft | 490 kts | 78° |
| 2026-05-07 05:01 | 56.44397 | -46.53687 | 37000 ft | 490 kts | 78° |
| 2026-05-07 05:01 | 56.45754 | -46.41602 | 37000 ft | 490 kts | 78° |
| 2026-05-07 05:02 | 56.47100 | -46.29506 | 37000 ft | 490 kts | 78° |
| 2026-05-07 05:02 | 56.48435 | -46.17394 | 37000 ft | 490 kts | 78° |
| 2026-05-07 05:03 | 56.49749 | -46.05352 | 37000 ft | 490 kts | 79° |
| 2026-05-07 05:03 | 56.51058 | -45.93242 | 37000 ft | 490 kts | 79° |
| 2026-05-07 05:04 | 56.52356 | -45.81125 | 37000 ft | 490 kts | 79° |
| 2026-05-07 05:04 | 56.53645 | -45.68968 | 37000 ft | 490 kts | 79° |
| 2026-05-07 05:05 | 56.54912 | -45.56893 | 37000 ft | 490 kts | 79° |
| 2026-05-07 05:05 | 56.56176 | -45.44737 | 37000 ft | 490 kts | 79° |
| 2026-05-07 05:06 | 56.57424 | -45.32601 | 37000 ft | 490 kts | 79° |
| 2026-05-07 05:06 | 56.58666 | -45.20413 | 37000 ft | 490 kts | 79° |
| 2026-05-07 05:07 | 56.59886 | -45.08311 | 37000 ft | 490 kts | 79° |
| 2026-05-07 05:07 | 56.61102 | -44.96123 | 37000 ft | 490 kts | 79° |
| 2026-05-07 05:08 | 56.62304 | -44.83941 | 37000 ft | 490 kts | 80° |
| 2026-05-07 05:08 | 56.63296 | -44.73796 | 37000 ft | 490 kts | 80° |
| 2026-05-07 05:09 | 56.64472 | -44.61656 | 37000 ft | 490 kts | 80° |
| 2026-05-07 05:09 | 56.65641 | -44.49452 | 37000 ft | 490 kts | 80° |
| 2026-05-07 05:10 | 56.66800 | -44.37217 | 37000 ft | 490 kts | 80° |
| 2026-05-07 05:10 | 56.67940 | -44.25057 | 37000 ft | 490 kts | 80° |
| 2026-05-07 05:11 | 56.69074 | -44.12817 | 37000 ft | 490 kts | 80° |
| 2026-05-07 05:11 | 56.70196 | -44.00573 | 37000 ft | 490 kts | 81° |
| 2026-05-07 05:12 | 56.71308 | -43.88308 | 37000 ft | 490 kts | 81° |
| 2026-05-07 05:12 | 56.72397 | -43.76148 | 37000 ft | 490 kts | 81° |
| 2026-05-07 05:13 | 56.73484 | -43.63867 | 37000 ft | 490 kts | 81° |
| 2026-05-07 05:13 | 56.74558 | -43.51605 | 37000 ft | 490 kts | 81° |
| 2026-05-07 05:14 | 56.75619 | -43.39328 | 37000 ft | 490 kts | 81° |
| 2026-05-07 05:14 | 56.76663 | -43.27117 | 37000 ft | 490 kts | 81° |
| 2026-05-07 05:15 | 56.77701 | -43.14825 | 37000 ft | 490 kts | 81° |
| 2026-05-07 05:15 | 56.78727 | -43.02523 | 37000 ft | 490 kts | 81° |
| 2026-05-07 05:16 | 56.79741 | -42.90215 | 37000 ft | 490 kts | 81° |
| 2026-05-07 05:16 | 56.80737 | -42.77972 | 37000 ft | 490 kts | 82° |
| 2026-05-07 05:17 | 56.81728 | -42.65632 | 37000 ft | 490 kts | 82° |
| 2026-05-07 05:17 | 56.82699 | -42.53385 | 37000 ft | 490 kts | 82° |
| 2026-05-07 05:18 | 56.83665 | -42.41049 | 37000 ft | 490 kts | 82° |
| 2026-05-07 05:18 | 56.84619 | -42.28700 | 37000 ft | 490 kts | 82° |
| 2026-05-07 05:19 | 56.85556 | -42.16406 | 37000 ft | 490 kts | 82° |
| 2026-05-07 05:19 | 56.86485 | -42.04054 | 37000 ft | 490 kts | 82° |
| 2026-05-07 05:20 | 56.87402 | -41.91694 | 37000 ft | 490 kts | 82° |
| 2026-05-07 05:20 | 56.88301 | -41.79392 | 37000 ft | 490 kts | 82° |
| 2026-05-07 05:21 | 56.89635 | -41.60844 | 37000 ft | 490 kts | 82° |
| 2026-05-07 05:22 | 56.90509 | -41.48461 | 37000 ft | 490 kts | 83° |
| 2026-05-07 05:22 | 56.91365 | -41.36155 | 37000 ft | 490 kts | 83° |
| 2026-05-07 05:23 | 56.92215 | -41.23766 | 37000 ft | 490 kts | 83° |
| 2026-05-07 05:23 | 56.93053 | -41.11363 | 37000 ft | 490 kts | 83° |
| 2026-05-07 05:24 | 56.93871 | -40.99061 | 37000 ft | 490 kts | 83° |
| 2026-05-07 05:24 | 56.94685 | -40.86636 | 37000 ft | 490 kts | 83° |
| 2026-05-07 05:25 | 56.95483 | -40.74277 | 37000 ft | 490 kts | 83° |
| 2026-05-07 05:25 | 56.96271 | -40.61866 | 37000 ft | 490 kts | 83° |
| 2026-05-07 05:26 | 56.97047 | -40.49439 | 37000 ft | 490 kts | 83° |
| 2026-05-07 05:26 | 56.97807 | -40.37076 | 37000 ft | 490 kts | 83° |
| 2026-05-07 05:27 | 56.98560 | -40.24617 | 37000 ft | 490 kts | 84° |
| 2026-05-07 05:27 | 56.99299 | -40.12177 | 37000 ft | 490 kts | 84° |
| 2026-05-07 05:28 | 57.00150 | -39.99863 | 37001 ft | 490 kts | 78° |
| 2026-05-07 05:28 | 57.01735 | -39.87713 | 37000 ft | 490 kts | 76° |
| 2026-05-07 05:29 | 57.03453 | -39.75581 | 37000 ft | 490 kts | 75° |
| 2026-05-07 05:29 | 57.05177 | -39.63462 | 37000 ft | 490 kts | 75° |
| 2026-05-07 05:30 | 57.06868 | -39.51400 | 37000 ft | 490 kts | 76° |
| 2026-05-07 05:30 | 57.08553 | -39.39231 | 37000 ft | 490 kts | 76° |
| 2026-05-07 05:31 | 57.10221 | -39.27070 | 37000 ft | 490 kts | 76° |
| 2026-05-07 05:31 | 57.11875 | -39.14914 | 37000 ft | 490 kts | 76° |
| 2026-05-07 05:32 | 57.13521 | -39.02725 | 37000 ft | 490 kts | 76° |
| 2026-05-07 05:32 | 57.15143 | -38.90614 | 37000 ft | 490 kts | 76° |
| 2026-05-07 05:33 | 57.16766 | -38.78398 | 37000 ft | 490 kts | 76° |
| 2026-05-07 05:33 | 57.18376 | -38.66186 | 37000 ft | 490 kts | 76° |
| 2026-05-07 05:34 | 57.19974 | -38.53961 | 37000 ft | 490 kts | 76° |
| 2026-05-07 05:34 | 57.21550 | -38.41800 | 37000 ft | 490 kts | 76° |
| 2026-05-07 05:35 | 57.23126 | -38.29543 | 37000 ft | 490 kts | 77° |
| 2026-05-07 05:35 | 57.24688 | -38.17281 | 37000 ft | 490 kts | 77° |
| 2026-05-07 05:36 | 57.26232 | -38.05070 | 37000 ft | 490 kts | 77° |
| 2026-05-07 05:36 | 57.27771 | -37.92788 | 37000 ft | 490 kts | 77° |
| 2026-05-07 05:37 | 57.29298 | -37.80492 | 37000 ft | 490 kts | 77° |
| 2026-05-07 05:37 | 57.30803 | -37.68270 | 37000 ft | 490 kts | 77° |
| 2026-05-07 05:38 | 57.32307 | -37.55952 | 37000 ft | 490 kts | 77° |
| 2026-05-07 05:38 | 57.33798 | -37.43629 | 37000 ft | 490 kts | 77° |
| 2026-05-07 05:39 | 57.35268 | -37.31367 | 37000 ft | 490 kts | 77° |
| 2026-05-07 05:39 | 57.36738 | -37.19004 | 37000 ft | 490 kts | 77° |
| 2026-05-07 05:40 | 57.38191 | -37.06663 | 37000 ft | 490 kts | 78° |
| 2026-05-07 05:40 | 57.39625 | -36.94377 | 37000 ft | 490 kts | 78° |
| 2026-05-07 05:41 | 57.41057 | -36.81996 | 37000 ft | 490 kts | 78° |
| 2026-05-07 05:41 | 57.42479 | -36.69589 | 37000 ft | 490 kts | 78° |
| 2026-05-07 05:42 | 57.43879 | -36.57253 | 37000 ft | 490 kts | 78° |
| 2026-05-07 05:42 | 57.45272 | -36.44866 | 37000 ft | 490 kts | 78° |
| 2026-05-07 05:43 | 57.46655 | -36.32443 | 37000 ft | 490 kts | 78° |
| 2026-05-07 05:43 | 57.48018 | -36.20089 | 37000 ft | 490 kts | 78° |
| 2026-05-07 05:44 | 57.49377 | -36.07651 | 37000 ft | 490 kts | 78° |
| 2026-05-07 05:44 | 57.50714 | -35.95294 | 37000 ft | 490 kts | 78° |
| 2026-05-07 05:45 | 57.52050 | -35.82823 | 37000 ft | 490 kts | 78° |
| 2026-05-07 05:45 | 57.53369 | -35.70382 | 37000 ft | 490 kts | 79° |
| 2026-05-07 05:46 | 57.54669 | -35.58002 | 37000 ft | 490 kts | 79° |
| 2026-05-07 05:46 | 57.55968 | -35.45504 | 37000 ft | 490 kts | 79° |
| 2026-05-07 05:47 | 57.57252 | -35.33029 | 37000 ft | 490 kts | 79° |
| 2026-05-07 05:47 | 57.58519 | -35.20587 | 37000 ft | 490 kts | 79° |
| 2026-05-07 05:48 | 57.59776 | -35.08108 | 37000 ft | 490 kts | 79° |
| 2026-05-07 05:48 | 57.61024 | -34.95600 | 37000 ft | 490 kts | 79° |
| 2026-05-07 05:49 | 57.62259 | -34.83083 | 37000 ft | 490 kts | 79° |
| 2026-05-07 05:49 | 57.63479 | -34.70580 | 37000 ft | 490 kts | 79° |
| 2026-05-07 05:50 | 57.64683 | -34.58113 | 37000 ft | 490 kts | 79° |
| 2026-05-07 05:50 | 57.65882 | -34.45562 | 37000 ft | 490 kts | 80° |
| 2026-05-07 05:51 | 57.66866 | -34.35152 | 37000 ft | 490 kts | 80° |
| 2026-05-07 05:51 | 57.68232 | -34.20545 | 37000 ft | 490 kts | 80° |
| 2026-05-07 05:52 | 57.69204 | -34.10033 | 37000 ft | 490 kts | 80° |
| 2026-05-07 05:52 | 57.70353 | -33.97470 | 37000 ft | 490 kts | 80° |
| 2026-05-07 05:53 | 57.71486 | -33.84947 | 37000 ft | 490 kts | 80° |
| 2026-05-07 05:53 | 57.72611 | -33.72364 | 37000 ft | 490 kts | 81° |
| 2026-05-07 05:54 | 57.73723 | -33.59774 | 37000 ft | 490 kts | 81° |
| 2026-05-07 05:54 | 57.74815 | -33.47266 | 37000 ft | 490 kts | 81° |
| 2026-05-07 05:55 | 57.75903 | -33.34654 | 37000 ft | 490 kts | 81° |
| 2026-05-07 05:55 | 57.76977 | -33.22049 | 37000 ft | 490 kts | 81° |
| 2026-05-07 05:56 | 57.78041 | -33.09415 | 37000 ft | 490 kts | 81° |
| 2026-05-07 05:56 | 57.79090 | -32.96792 | 37000 ft | 490 kts | 81° |
| 2026-05-07 05:57 | 57.80121 | -32.84237 | 37000 ft | 490 kts | 81° |
| 2026-05-07 05:57 | 57.81145 | -32.71602 | 37000 ft | 490 kts | 81° |
| 2026-05-07 05:58 | 57.82159 | -32.58934 | 37000 ft | 490 kts | 81° |
| 2026-05-07 05:58 | 57.83154 | -32.46337 | 37000 ft | 490 kts | 82° |
| 2026-05-07 05:59 | 57.84141 | -32.33668 | 37000 ft | 490 kts | 82° |
| 2026-05-07 05:59 | 57.85117 | -32.20981 | 37000 ft | 490 kts | 82° |
| 2026-05-07 06:00 | 57.86074 | -32.08365 | 37000 ft | 490 kts | 82° |
| 2026-05-07 06:00 | 57.87025 | -31.95661 | 37000 ft | 490 kts | 82° |
| 2026-05-07 06:01 | 57.87962 | -31.82964 | 37000 ft | 490 kts | 82° |
| 2026-05-07 06:01 | 57.88881 | -31.70326 | 37000 ft | 490 kts | 82° |
| 2026-05-07 06:02 | 57.89793 | -31.57620 | 37000 ft | 490 kts | 82° |
| 2026-05-07 06:02 | 57.90692 | -31.44905 | 37000 ft | 490 kts | 82° |
| 2026-05-07 06:03 | 57.91572 | -31.32267 | 37000 ft | 490 kts | 82° |
| 2026-05-07 06:03 | 57.92447 | -31.19520 | 37000 ft | 490 kts | 83° |
| 2026-05-07 06:04 | 57.93308 | -31.06781 | 37000 ft | 490 kts | 83° |
| 2026-05-07 06:04 | 57.94150 | -30.94132 | 37000 ft | 490 kts | 83° |
| 2026-05-07 06:05 | 57.94986 | -30.81381 | 37000 ft | 490 kts | 83° |
| 2026-05-07 06:05 | 57.95809 | -30.68629 | 37000 ft | 490 kts | 83° |
| 2026-05-07 06:06 | 57.96614 | -30.55944 | 37000 ft | 490 kts | 83° |
| 2026-05-07 06:06 | 57.97411 | -30.43193 | 37000 ft | 490 kts | 83° |
| 2026-05-07 06:07 | 57.98195 | -30.30420 | 37000 ft | 490 kts | 83° |
| 2026-05-07 06:07 | 57.98963 | -30.17718 | 37000 ft | 490 kts | 83° |
| 2026-05-07 06:08 | 57.99721 | -30.04947 | 37000 ft | 490 kts | 83° |
| 2026-05-07 06:08 | 58.00417 | -29.92159 | 37000 ft | 490 kts | 85° |
| 2026-05-07 06:09 | 58.00879 | -29.79391 | 37000 ft | 490 kts | 86° |
| 2026-05-07 06:09 | 58.01302 | -29.66525 | 37000 ft | 490 kts | 86° |
| 2026-05-07 06:10 | 58.01744 | -29.53681 | 37000 ft | 490 kts | 86° |
| 2026-05-07 06:10 | 58.02191 | -29.40921 | 37000 ft | 490 kts | 86° |
| 2026-05-07 06:11 | 58.02631 | -29.28093 | 37000 ft | 490 kts | 86° |
| 2026-05-07 06:11 | 58.03059 | -29.15229 | 37000 ft | 490 kts | 86° |
| 2026-05-07 06:12 | 58.03470 | -29.02438 | 37000 ft | 490 kts | 86° |
| 2026-05-07 06:12 | 58.03869 | -28.89582 | 37000 ft | 490 kts | 86° |
| 2026-05-07 06:13 | 58.04256 | -28.76715 | 37000 ft | 490 kts | 86° |
| 2026-05-07 06:13 | 58.04627 | -28.63948 | 37000 ft | 490 kts | 87° |
| 2026-05-07 06:14 | 58.04988 | -28.51090 | 37000 ft | 490 kts | 87° |
| 2026-05-07 06:14 | 58.05336 | -28.38204 | 37000 ft | 490 kts | 87° |
| 2026-05-07 06:15 | 58.05669 | -28.25420 | 37000 ft | 490 kts | 87° |
| 2026-05-07 06:15 | 58.05991 | -28.12551 | 37000 ft | 490 kts | 87° |
| 2026-05-07 06:16 | 58.06300 | -27.99668 | 37000 ft | 490 kts | 87° |
| 2026-05-07 06:16 | 58.06596 | -27.86810 | 37000 ft | 490 kts | 88° |
| 2026-05-07 06:17 | 58.06877 | -27.74012 | 37000 ft | 490 kts | 88° |
| 2026-05-07 06:17 | 58.07147 | -27.61136 | 37000 ft | 490 kts | 88° |
| 2026-05-07 06:18 | 58.07405 | -27.48242 | 37000 ft | 490 kts | 88° |
| 2026-05-07 06:18 | 58.07647 | -27.35447 | 37000 ft | 490 kts | 88° |
| 2026-05-07 06:19 | 58.07878 | -27.22562 | 37000 ft | 490 kts | 88° |
| 2026-05-07 06:19 | 58.08096 | -27.09693 | 37000 ft | 490 kts | 88° |
| 2026-05-07 06:20 | 58.08302 | -26.96796 | 37000 ft | 490 kts | 88° |
| 2026-05-07 06:20 | 58.08494 | -26.83918 | 37000 ft | 490 kts | 88° |
| 2026-05-07 06:21 | 58.08672 | -26.71089 | 37000 ft | 490 kts | 88° |
| 2026-05-07 06:21 | 58.08838 | -26.58211 | 37000 ft | 490 kts | 89° |
| 2026-05-07 06:22 | 58.08991 | -26.45388 | 37000 ft | 490 kts | 89° |
| 2026-05-07 06:22 | 58.09196 | -26.26050 | 37000 ft | 490 kts | 89° |
| 2026-05-07 06:23 | 58.09317 | -26.13169 | 37000 ft | 490 kts | 89° |
| 2026-05-07 06:23 | 58.09425 | -26.00278 | 37000 ft | 490 kts | 89° |
| 2026-05-07 06:24 | 58.09519 | -25.87402 | 37000 ft | 490 kts | 89° |
| 2026-05-07 06:24 | 58.09601 | -25.74568 | 37000 ft | 490 kts | 89° |
| 2026-05-07 06:25 | 58.09669 | -25.61667 | 37000 ft | 490 kts | 89° |
| 2026-05-07 06:25 | 58.09725 | -25.48797 | 37000 ft | 490 kts | 89° |
| 2026-05-07 06:26 | 58.09768 | -25.35900 | 37000 ft | 490 kts | 90° |
| 2026-05-07 06:26 | 58.09797 | -25.23074 | 37000 ft | 490 kts | 90° |
| 2026-05-07 06:27 | 58.09814 | -25.10185 | 37000 ft | 490 kts | 90° |
| 2026-05-07 06:27 | 58.09818 | -24.97259 | 37000 ft | 490 kts | 90° |
| 2026-05-07 06:28 | 58.09809 | -24.84453 | 37000 ft | 490 kts | 90° |
| 2026-05-07 06:28 | 58.09786 | -24.71548 | 37000 ft | 490 kts | 90° |
| 2026-05-07 06:29 | 58.09751 | -24.58706 | 37000 ft | 490 kts | 90° |
| 2026-05-07 06:29 | 58.09703 | -24.45806 | 37000 ft | 490 kts | 90° |
| 2026-05-07 06:30 | 58.09642 | -24.32919 | 37000 ft | 490 kts | 90° |
| 2026-05-07 06:30 | 58.09567 | -24.20020 | 37000 ft | 490 kts | 90° |
| 2026-05-07 06:31 | 58.09481 | -24.07205 | 37000 ft | 490 kts | 91° |
| 2026-05-07 06:31 | 58.09380 | -23.94298 | 37000 ft | 490 kts | 91° |
| 2026-05-07 06:32 | 58.09268 | -23.81482 | 37000 ft | 490 kts | 91° |
| 2026-05-07 06:32 | 58.09141 | -23.68570 | 37000 ft | 490 kts | 91° |
| 2026-05-07 06:33 | 58.09002 | -23.55686 | 37000 ft | 490 kts | 91° |
| 2026-05-07 06:33 | 58.08851 | -23.42860 | 37000 ft | 490 kts | 91° |
| 2026-05-07 06:34 | 58.08685 | -23.29960 | 37000 ft | 490 kts | 91° |
| 2026-05-07 06:34 | 58.08538 | -23.19239 | 37000 ft | 490 kts | 91° |
| 2026-05-07 06:35 | 58.08350 | -23.06423 | 37000 ft | 490 kts | 91° |
| 2026-05-07 06:35 | 58.08148 | -22.93535 | 37000 ft | 490 kts | 91° |
| 2026-05-07 06:36 | 58.07933 | -22.80667 | 37000 ft | 490 kts | 92° |
| 2026-05-07 06:36 | 58.07705 | -22.67775 | 37000 ft | 490 kts | 92° |
| 2026-05-07 06:37 | 58.07466 | -22.54987 | 37000 ft | 490 kts | 92° |
| 2026-05-07 06:37 | 58.07212 | -22.42131 | 37000 ft | 490 kts | 92° |
| 2026-05-07 06:38 | 58.06946 | -22.29259 | 37000 ft | 490 kts | 92° |
| 2026-05-07 06:38 | 58.06666 | -22.16399 | 37000 ft | 490 kts | 92° |
| 2026-05-07 06:39 | 58.06373 | -22.03519 | 37000 ft | 490 kts | 92° |
| 2026-05-07 06:39 | 58.06069 | -21.90721 | 37000 ft | 490 kts | 92° |
| 2026-05-07 06:40 | 58.05750 | -21.77847 | 37000 ft | 490 kts | 92° |
| 2026-05-07 06:40 | 58.05420 | -21.65042 | 37000 ft | 490 kts | 93° |
| 2026-05-07 06:41 | 58.05076 | -21.52175 | 37000 ft | 490 kts | 93° |
| 2026-05-07 06:41 | 58.04718 | -21.39309 | 37000 ft | 490 kts | 93° |
| 2026-05-07 06:42 | 58.04350 | -21.26518 | 37000 ft | 490 kts | 93° |
| 2026-05-07 06:42 | 58.03966 | -21.13644 | 37000 ft | 490 kts | 93° |
| 2026-05-07 06:43 | 58.03570 | -21.00803 | 37000 ft | 490 kts | 93° |
| 2026-05-07 06:43 | 58.03163 | -20.88028 | 37000 ft | 490 kts | 93° |
| 2026-05-07 06:44 | 58.02740 | -20.75174 | 37000 ft | 490 kts | 94° |
| 2026-05-07 06:44 | 58.02306 | -20.62355 | 37000 ft | 490 kts | 94° |
| 2026-05-07 06:45 | 58.01858 | -20.49502 | 37000 ft | 490 kts | 94° |
| 2026-05-07 06:45 | 58.01397 | -20.36670 | 37000 ft | 490 kts | 94° |
| 2026-05-07 06:46 | 58.00926 | -20.23923 | 37000 ft | 490 kts | 94° |
| 2026-05-07 06:46 | 58.00439 | -20.11080 | 37000 ft | 490 kts | 94° |
| 2026-05-07 06:47 | 57.99582 | -19.98419 | 37001 ft | 490 kts | 104° |
| 2026-05-07 06:47 | 57.97623 | -19.86122 | 37000 ft | 490 kts | 108° |
| 2026-05-07 06:48 | 57.95454 | -19.73940 | 37000 ft | 490 kts | 109° |
| 2026-05-07 06:48 | 57.93254 | -19.61792 | 37000 ft | 490 kts | 109° |
| 2026-05-07 06:49 | 57.91073 | -19.49720 | 37000 ft | 490 kts | 109° |
| 2026-05-07 06:49 | 57.88882 | -19.37595 | 37000 ft | 490 kts | 109° |
| 2026-05-07 06:50 | 57.86681 | -19.25483 | 37000 ft | 490 kts | 109° |
| 2026-05-07 06:50 | 57.84464 | -19.13362 | 37000 ft | 490 kts | 109° |
| 2026-05-07 06:51 | 57.82232 | -19.01242 | 37000 ft | 490 kts | 109° |
| 2026-05-07 06:51 | 57.80009 | -18.89249 | 37000 ft | 490 kts | 109° |
| 2026-05-07 06:52 | 57.77756 | -18.77167 | 37000 ft | 490 kts | 109° |
| 2026-05-07 06:52 | 57.75506 | -18.65181 | 37000 ft | 490 kts | 109° |
| 2026-05-07 06:53 | 57.73230 | -18.53133 | 37000 ft | 490 kts | 109° |
| 2026-05-07 06:53 | 57.70948 | -18.41122 | 37000 ft | 490 kts | 110° |
| 2026-05-07 06:54 | 57.68647 | -18.29093 | 37000 ft | 490 kts | 110° |
| 2026-05-07 06:54 | 57.66347 | -18.17143 | 37000 ft | 490 kts | 110° |
| 2026-05-07 06:55 | 57.64029 | -18.05168 | 37000 ft | 490 kts | 110° |
| 2026-05-07 06:55 | 57.61710 | -17.93265 | 37000 ft | 490 kts | 110° |
| 2026-05-07 06:56 | 57.59365 | -17.81306 | 37000 ft | 490 kts | 110° |
| 2026-05-07 06:56 | 57.57011 | -17.69369 | 37000 ft | 490 kts | 110° |
| 2026-05-07 06:57 | 57.54663 | -17.57534 | 37000 ft | 490 kts | 110° |
| 2026-05-07 06:57 | 57.52285 | -17.45621 | 37000 ft | 490 kts | 110° |
| 2026-05-07 06:58 | 57.49899 | -17.33736 | 37000 ft | 490 kts | 110° |
| 2026-05-07 06:58 | 57.47517 | -17.21944 | 37000 ft | 490 kts | 110° |
| 2026-05-07 06:59 | 57.45103 | -17.10067 | 37000 ft | 490 kts | 111° |
| 2026-05-07 06:59 | 57.42697 | -16.98296 | 37000 ft | 490 kts | 111° |
| 2026-05-07 07:00 | 57.40264 | -16.86466 | 37000 ft | 490 kts | 111° |
| 2026-05-07 07:00 | 57.37821 | -16.74654 | 37000 ft | 490 kts | 111° |
| 2026-05-07 07:01 | 57.35381 | -16.62926 | 37000 ft | 490 kts | 111° |
| 2026-05-07 07:01 | 57.32914 | -16.51132 | 37000 ft | 490 kts | 111° |
| 2026-05-07 07:02 | 57.30441 | -16.39382 | 37000 ft | 490 kts | 111° |
| 2026-05-07 07:02 | 57.27973 | -16.27727 | 37000 ft | 490 kts | 111° |
| 2026-05-07 07:03 | 57.25474 | -16.15986 | 37000 ft | 490 kts | 111° |
| 2026-05-07 07:03 | 57.22969 | -16.04288 | 37000 ft | 490 kts | 111° |
| 2026-05-07 07:04 | 57.20450 | -15.92589 | 37000 ft | 490 kts | 111° |
| 2026-05-07 07:04 | 57.17935 | -15.80974 | 37000 ft | 490 kts | 112° |
| 2026-05-07 07:05 | 57.15396 | -15.69316 | 37000 ft | 490 kts | 112° |
| 2026-05-07 07:05 | 57.12842 | -15.57654 | 37000 ft | 490 kts | 112° |
| 2026-05-07 07:06 | 57.10299 | -15.46108 | 37000 ft | 490 kts | 112° |
| 2026-05-07 07:06 | 57.07725 | -15.34483 | 37000 ft | 490 kts | 112° |
| 2026-05-07 07:07 | 57.05139 | -15.22870 | 37000 ft | 490 kts | 112° |
| 2026-05-07 07:07 | 57.02563 | -15.11365 | 37000 ft | 490 kts | 112° |
| 2026-05-07 07:08 | 57.00275 | -14.99567 | 37001 ft | 490 kts | 103° |
| 2026-05-07 07:08 | 56.99348 | -14.87188 | 37000 ft | 490 kts | 95° |
| 2026-05-07 07:09 | 56.98759 | -14.74758 | 37000 ft | 490 kts | 95° |
| 2026-05-07 07:09 | 56.98201 | -14.62355 | 37000 ft | 490 kts | 95° |
| 2026-05-07 07:10 | 56.97604 | -14.49892 | 37000 ft | 490 kts | 95° |
| 2026-05-07 07:10 | 56.96977 | -14.37418 | 37000 ft | 490 kts | 95° |
| 2026-05-07 07:11 | 56.96338 | -14.25048 | 37000 ft | 490 kts | 95° |
| 2026-05-07 07:11 | 56.95682 | -14.12596 | 37000 ft | 490 kts | 95° |
| 2026-05-07 07:12 | 56.94766 | -14.00305 | 37001 ft | 490 kts | 104° |
| 2026-05-07 07:12 | 56.92569 | -13.88491 | 37000 ft | 489 kts | 111° |
| 2026-05-07 07:13 | 56.90049 | -13.76887 | 37000 ft | 490 kts | 112° |
| 2026-05-07 07:13 | 56.87477 | -13.65328 | 37000 ft | 490 kts | 112° |
| 2026-05-07 07:14 | 56.84929 | -13.53842 | 37000 ft | 490 kts | 112° |
| 2026-05-07 07:14 | 56.82373 | -13.42307 | 37000 ft | 490 kts | 112° |
| 2026-05-07 07:15 | 56.79804 | -13.30757 | 37000 ft | 490 kts | 112° |
| 2026-05-07 07:15 | 56.77242 | -13.19302 | 37000 ft | 490 kts | 112° |
| 2026-05-07 07:16 | 56.74653 | -13.07795 | 37000 ft | 490 kts | 112° |
| 2026-05-07 07:16 | 56.72054 | -12.96305 | 37000 ft | 490 kts | 112° |
| 2026-05-07 07:17 | 56.69461 | -12.84908 | 37000 ft | 490 kts | 112° |
| 2026-05-07 07:17 | 56.66843 | -12.73460 | 37000 ft | 490 kts | 112° |
| 2026-05-07 07:18 | 56.64656 | -12.63941 | 37000 ft | 490 kts | 112° |
| 2026-05-07 07:18 | 56.62014 | -12.52504 | 37000 ft | 490 kts | 113° |
| 2026-05-07 07:19 | 56.59381 | -12.41163 | 37000 ft | 490 kts | 113° |
| 2026-05-07 07:19 | 56.56718 | -12.29758 | 37000 ft | 490 kts | 113° |
| 2026-05-07 07:20 | 56.54063 | -12.18441 | 37000 ft | 490 kts | 113° |
| 2026-05-07 07:20 | 56.51382 | -12.07078 | 37000 ft | 490 kts | 113° |
| 2026-05-07 07:21 | 56.48690 | -11.95728 | 37000 ft | 490 kts | 113° |
| 2026-05-07 07:21 | 56.46007 | -11.84473 | 37000 ft | 490 kts | 113° |
| 2026-05-07 07:22 | 56.43293 | -11.73147 | 37000 ft | 490 kts | 113° |
| 2026-05-07 07:22 | 56.40570 | -11.61844 | 37000 ft | 490 kts | 114° |
| 2026-05-07 07:23 | 56.37857 | -11.50642 | 37000 ft | 490 kts | 114° |
| 2026-05-07 07:23 | 56.35114 | -11.39373 | 37000 ft | 490 kts | 114° |
| 2026-05-07 07:24 | 56.32366 | -11.28140 | 37000 ft | 490 kts | 114° |
| 2026-05-07 07:24 | 56.29604 | -11.16909 | 37000 ft | 490 kts | 114° |
| 2026-05-07 07:25 | 56.25457 | -11.00157 | 37000 ft | 490 kts | 114° |
| 2026-05-07 07:26 | 56.22671 | -10.88970 | 37000 ft | 490 kts | 114° |
| 2026-05-07 07:26 | 56.19889 | -10.77858 | 37000 ft | 490 kts | 114° |
| 2026-05-07 07:27 | 56.17082 | -10.66702 | 37000 ft | 490 kts | 114° |
| 2026-05-07 07:27 | 56.14267 | -10.55567 | 37001 ft | 490 kts | 114° |
| 2026-05-07 07:28 | 56.11440 | -10.44443 | 37000 ft | 490 kts | 115° |
| 2026-05-07 07:28 | 56.08602 | -10.33335 | 37000 ft | 490 kts | 115° |
| 2026-05-07 07:29 | 56.05776 | -10.22323 | 37000 ft | 490 kts | 115° |
| 2026-05-07 07:29 | 56.02918 | -10.11243 | 37000 ft | 490 kts | 115° |
| 2026-05-07 07:30 | 55.99973 | -10.00262 | 37000 ft | 490 kts | 120° |
| 2026-05-07 07:30 | 55.96384 | -9.89894 | 37000 ft | 489 kts | 122° |
| 2026-05-07 07:31 | 55.92745 | -9.79688 | 37000 ft | 489 kts | 122° |
| 2026-05-07 07:31 | 55.89072 | -9.69448 | 37000 ft | 489 kts | 123° |
| 2026-05-07 07:32 | 55.85388 | -9.59229 | 37001 ft | 489 kts | 123° |
| 2026-05-07 07:32 | 55.81697 | -9.49035 | 37000 ft | 489 kts | 123° |
| 2026-05-07 07:33 | 55.78325 | -9.39757 | 37000 ft | 489 kts | 123° |
| 2026-05-07 07:33 | 55.74619 | -9.29603 | 37000 ft | 489 kts | 123° |
| 2026-05-07 07:34 | 55.70899 | -9.19452 | 37000 ft | 489 kts | 123° |
| 2026-05-07 07:34 | 55.67180 | -9.09347 | 37000 ft | 489 kts | 123° |
| 2026-05-07 07:35 | 55.63469 | -8.99305 | 37000 ft | 489 kts | 123° |
| 2026-05-07 07:35 | 55.59720 | -8.89203 | 37000 ft | 489 kts | 123° |
| 2026-05-07 07:36 | 55.55973 | -8.79146 | 37000 ft | 489 kts | 123° |
| 2026-05-07 07:36 | 55.52236 | -8.69155 | 37000 ft | 489 kts | 123° |
| 2026-05-07 07:37 | 55.48470 | -8.59131 | 37000 ft | 489 kts | 123° |
| 2026-05-07 07:37 | 55.44693 | -8.49117 | 37000 ft | 489 kts | 124° |
| 2026-05-07 07:38 | 55.41081 | -8.39579 | 37000 ft | 489 kts | 124° |
| 2026-05-07 07:38 | 55.37310 | -8.29659 | 37000 ft | 489 kts | 124° |
| 2026-05-07 07:39 | 55.34147 | -8.21370 | 37000 ft | 489 kts | 124° |
| 2026-05-07 07:39 | 55.30267 | -8.11241 | 37000 ft | 489 kts | 124° |
| 2026-05-07 07:40 | 55.26467 | -8.01362 | 37000 ft | 489 kts | 124° |
| 2026-05-07 07:40 | 55.22642 | -7.91454 | 37000 ft | 489 kts | 124° |
| 2026-05-07 07:41 | 55.18837 | -7.81642 | 37000 ft | 490 kts | 124° |
| 2026-05-07 07:41 | 55.15006 | -7.71799 | 37001 ft | 490 kts | 124° |
| 2026-05-07 07:42 | 55.11155 | -7.61945 | 37000 ft | 490 kts | 124° |
| 2026-05-07 07:42 | 55.07295 | -7.52107 | 37000 ft | 490 kts | 124° |
| 2026-05-07 07:43 | 55.03454 | -7.42354 | 37000 ft | 490 kts | 124° |
| 2026-05-07 07:43 | 54.99575 | -7.32547 | 37001 ft | 490 kts | 124° |
| 2026-05-07 07:44 | 54.95733 | -7.22870 | 37000 ft | 490 kts | 124° |
| 2026-05-07 07:44 | 54.91819 | -7.13051 | 37000 ft | 490 kts | 125° |
| 2026-05-07 07:45 | 54.87940 | -7.03358 | 37000 ft | 491 kts | 125° |
| 2026-05-07 07:45 | 54.84027 | -6.93619 | 37000 ft | 491 kts | 125° |
| 2026-05-07 07:46 | 54.80088 | -6.83853 | 37000 ft | 492 kts | 125° |
| 2026-05-07 07:46 | 54.76183 | -6.74209 | 37000 ft | 491 kts | 125° |
| 2026-05-07 07:47 | 54.72253 | -6.64540 | 37001 ft | 491 kts | 125° |
| 2026-05-07 07:47 | 54.68310 | -6.54878 | 37000 ft | 490 kts | 125° |
| 2026-05-07 07:48 | 54.64390 | -6.45310 | 37000 ft | 490 kts | 125° |
| 2026-05-07 07:48 | 54.60447 | -6.35722 | 37000 ft | 489 kts | 126° |
| 2026-05-07 07:49 | 54.56494 | -6.26147 | 37000 ft | 490 kts | 126° |
| 2026-05-07 07:49 | 54.52524 | -6.16567 | 37000 ft | 490 kts | 126° |
| 2026-05-07 07:50 | 54.48576 | -6.07078 | 37000 ft | 490 kts | 126° |
| 2026-05-07 07:50 | 54.44599 | -5.97555 | 37000 ft | 490 kts | 126° |
| 2026-05-07 07:51 | 54.40605 | -5.88028 | 37000 ft | 490 kts | 126° |
| 2026-05-07 07:51 | 54.36610 | -5.78533 | 37001 ft | 490 kts | 126° |
| 2026-05-07 07:52 | 54.32633 | -5.69119 | 37000 ft | 490 kts | 126° |
| 2026-05-07 07:52 | 54.28615 | -5.59644 | 37000 ft | 490 kts | 126° |
| 2026-05-07 07:53 | 54.24633 | -5.50287 | 36742 ft | 488 kts | 126° |
| 2026-05-07 07:53 | 54.22626 | -5.45585 | 36024 ft | 488 kts | 126° |
| 2026-05-07 07:53 | 54.20616 | -5.40886 | 35327 ft | 487 kts | 126° |
| 2026-05-07 07:53 | 54.18636 | -5.36265 | 34628 ft | 487 kts | 126° |
| 2026-05-07 07:54 | 54.16627 | -5.31583 | 33865 ft | 489 kts | 126° |
| 2026-05-07 07:54 | 54.14606 | -5.26885 | 33086 ft | 489 kts | 126° |
| 2026-05-07 07:54 | 54.12584 | -5.22192 | 32295 ft | 490 kts | 126° |
| 2026-05-07 07:54 | 54.10559 | -5.17501 | 31485 ft | 490 kts | 126° |
| 2026-05-07 07:55 | 54.08550 | -5.12855 | 30667 ft | 491 kts | 126° |
| 2026-05-07 07:55 | 54.06524 | -5.08177 | 29814 ft | 491 kts | 126° |
| 2026-05-07 07:55 | 54.04485 | -5.03482 | 28976 ft | 491 kts | 127° |
| 2026-05-07 07:55 | 54.02459 | -4.98822 | 28312 ft | 487 kts | 127° |
| 2026-05-07 07:56 | 54.00474 | -4.94266 | 27707 ft | 481 kts | 127° |
| 2026-05-07 07:56 | 53.98487 | -4.89714 | 27097 ft | 476 kts | 127° |
| 2026-05-07 07:56 | 53.96522 | -4.85216 | 26710 ft | 473 kts | 127° |
| 2026-05-07 07:56 | 53.94555 | -4.80681 | 26370 ft | 477 kts | 126° |
| 2026-05-07 07:57 | 53.92588 | -4.76142 | 25986 ft | 476 kts | 126° |
| 2026-05-07 07:57 | 53.90629 | -4.71632 | 25590 ft | 473 kts | 126° |
| 2026-05-07 07:57 | 53.88702 | -4.67207 | 25206 ft | 470 kts | 127° |
| 2026-05-07 07:57 | 53.86762 | -4.62761 | 24816 ft | 467 kts | 127° |
| 2026-05-07 07:58 | 53.84832 | -4.58345 | 24425 ft | 465 kts | 127° |
| 2026-05-07 07:58 | 53.82912 | -4.53961 | 24040 ft | 462 kts | 127° |
| 2026-05-07 07:58 | 53.81000 | -4.49603 | 23657 ft | 459 kts | 127° |
| 2026-05-07 07:58 | 53.79094 | -4.45256 | 23261 ft | 457 kts | 127° |
| 2026-05-07 07:59 | 53.77199 | -4.40953 | 22889 ft | 454 kts | 127° |
| 2026-05-07 07:59 | 53.75320 | -4.36695 | 22518 ft | 452 kts | 127° |
| 2026-05-07 07:59 | 53.73443 | -4.32447 | 22148 ft | 449 kts | 127° |
| 2026-05-07 07:59 | 53.71600 | -4.28281 | 21779 ft | 447 kts | 127° |
| 2026-05-07 08:00 | 53.69743 | -4.24092 | 21407 ft | 444 kts | 127° |
| 2026-05-07 08:00 | 53.67894 | -4.19926 | 21040 ft | 442 kts | 127° |
| 2026-05-07 08:00 | 53.66051 | -4.15782 | 20674 ft | 439 kts | 127° |
| 2026-05-07 08:00 | 53.64232 | -4.11654 | 20313 ft | 437 kts | 125° |
| 2026-05-07 08:01 | 53.63183 | -4.08768 | 20065 ft | 436 kts | 117° |
| 2026-05-07 08:01 | 53.61930 | -4.04118 | 19711 ft | 433 kts | 112° |
| 2026-05-07 08:01 | 53.60786 | -3.99438 | 19350 ft | 431 kts | 112° |
| 2026-05-07 08:01 | 53.59651 | -3.94774 | 18994 ft | 429 kts | 112° |
| 2026-05-07 08:02 | 53.58511 | -3.90126 | 18632 ft | 427 kts | 112° |
| 2026-05-07 08:02 | 53.57372 | -3.85511 | 18271 ft | 425 kts | 112° |
| 2026-05-07 08:02 | 53.56241 | -3.80947 | 17920 ft | 422 kts | 112° |
| 2026-05-07 08:02 | 53.55121 | -3.76444 | 17577 ft | 420 kts | 112° |
| 2026-05-07 08:03 | 53.53990 | -3.71907 | 17221 ft | 418 kts | 113° |
| 2026-05-07 08:03 | 53.52865 | -3.67405 | 16855 ft | 416 kts | 112° |
| 2026-05-07 08:03 | 53.51749 | -3.62942 | 16409 ft | 413 kts | 113° |
| 2026-05-07 08:03 | 53.50633 | -3.58500 | 15958 ft | 411 kts | 113° |
| 2026-05-07 08:04 | 53.49524 | -3.54094 | 15512 ft | 408 kts | 113° |
| 2026-05-07 08:04 | 53.48421 | -3.49721 | 15075 ft | 405 kts | 113° |
| 2026-05-07 08:04 | 53.47337 | -3.45429 | 14649 ft | 403 kts | 113° |
| 2026-05-07 08:04 | 53.46243 | -3.41109 | 14209 ft | 400 kts | 113° |
| 2026-05-07 08:05 | 53.45153 | -3.36807 | 13772 ft | 398 kts | 113° |
| 2026-05-07 08:05 | 53.44070 | -3.32545 | 13345 ft | 395 kts | 113° |
| 2026-05-07 08:05 | 53.42994 | -3.28316 | 12919 ft | 393 kts | 113° |
| 2026-05-07 08:05 | 53.41927 | -3.24134 | 12613 ft | 383 kts | 113° |
| 2026-05-07 08:06 | 53.40899 | -3.20110 | 12376 ft | 368 kts | 113° |
| 2026-05-07 08:06 | 53.39986 | -3.16176 | 12120 ft | 355 kts | 105° |
| 2026-05-07 08:06 | 53.39837 | -3.12204 | 11872 ft | 342 kts | 81° |
| 2026-05-07 08:06 | 53.40644 | -3.08546 | 11666 ft | 329 kts | 59° |
| 2026-05-07 08:07 | 53.41824 | -3.05334 | 11493 ft | 317 kts | 57° |
| 2026-05-07 08:07 | 53.42980 | -3.02243 | 11281 ft | 307 kts | 58° |
| 2026-05-07 08:07 | 53.44079 | -2.99219 | 10931 ft | 302 kts | 59° |
| 2026-05-07 08:07 | 53.45155 | -2.96196 | 10548 ft | 300 kts | 59° |
| 2026-05-07 08:08 | 53.46194 | -2.93235 | 10108 ft | 294 kts | 59° |
| 2026-05-07 08:08 | 53.47218 | -2.90290 | 9291 ft | 291 kts | 59° |
| 2026-05-07 08:08 | 53.48209 | -2.87433 | 8915 ft | 273 kts | 59° |
| 2026-05-07 08:08 | 53.49142 | -2.84729 | 8660 ft | 265 kts | 59° |
| 2026-05-07 08:09 | 53.50063 | -2.82056 | 8386 ft | 263 kts | 60° |
| 2026-05-07 08:09 | 53.50975 | -2.79407 | 8095 ft | 261 kts | 60° |
| 2026-05-07 08:09 | 53.51718 | -2.77244 | 7835 ft | 261 kts | 60° |
| 2026-05-07 08:09 | 53.52535 | -2.74867 | 7613 ft | 259 kts | 60° |
| 2026-05-07 08:10 | 53.53434 | -2.72245 | 7341 ft | 257 kts | 60° |
| 2026-05-07 08:10 | 53.54325 | -2.69642 | 7027 ft | 256 kts | 60° |
| 2026-05-07 08:10 | 53.55215 | -2.67048 | 6720 ft | 256 kts | 60° |
| 2026-05-07 08:10 | 53.56104 | -2.64452 | 6421 ft | 255 kts | 60° |
| 2026-05-07 08:11 | 53.56979 | -2.61896 | 6128 ft | 254 kts | 60° |
| 2026-05-07 08:11 | 53.57858 | -2.59326 | 5831 ft | 253 kts | 60° |
| 2026-05-07 08:11 | 53.58735 | -2.56757 | 5530 ft | 252 kts | 60° |
| 2026-05-07 08:11 | 53.59611 | -2.54192 | 5222 ft | 251 kts | 60° |
| 2026-05-07 08:12 | 53.60478 | -2.51651 | 4892 ft | 250 kts | 60° |
| 2026-05-07 08:12 | 53.61340 | -2.49127 | 4705 ft | 248 kts | 60° |
| 2026-05-07 08:12 | 53.62204 | -2.46595 | 4701 ft | 249 kts | 60° |
| 2026-05-07 08:12 | 53.63069 | -2.44061 | 4702 ft | 249 kts | 60° |
| 2026-05-07 08:13 | 53.63924 | -2.41523 | 4700 ft | 249 kts | 61° |
| 2026-05-07 08:13 | 53.64580 | -2.38826 | 4702 ft | 249 kts | 71° |
| 2026-05-07 08:13 | 53.65019 | -2.36004 | 4704 ft | 249 kts | 78° |
| 2026-05-07 08:13 | 53.65334 | -2.33172 | 4700 ft | 249 kts | 79° |
| 2026-05-07 08:14 | 53.65624 | -2.30280 | 4690 ft | 249 kts | 82° |
| 2026-05-07 08:14 | 53.65656 | -2.27362 | 4707 ft | 249 kts | 93° |
| 2026-05-07 08:14 | 53.65529 | -2.24442 | 4700 ft | 249 kts | 95° |
| 2026-05-07 08:14 | 53.65383 | -2.21526 | 4702 ft | 249 kts | 95° |
| 2026-05-07 08:15 | 53.65235 | -2.18642 | 4638 ft | 249 kts | 95° |
| 2026-05-07 08:15 | 53.65086 | -2.15737 | 4613 ft | 249 kts | 95° |
| 2026-05-07 08:15 | 53.64802 | -2.12835 | 4185 ft | 254 kts | 107° |
| 2026-05-07 08:15 | 53.63926 | -2.10203 | 3581 ft | 262 kts | 134° |
| 2026-05-07 08:16 | 53.62404 | -2.08556 | 3171 ft | 262 kts | 162° |
| 2026-05-07 08:16 | 53.60615 | -2.08380 | 2951 ft | 259 kts | 192° |
| 2026-05-07 08:16 | 53.58987 | -2.09641 | 2928 ft | 258 kts | 214° |
| 2026-05-07 08:16 | 53.57504 | -2.11163 | 2921 ft | 242 kts | 214° |
| 2026-05-07 08:17 | 53.56485 | -2.13161 | 3189 ft | 218 kts | 246° |
| 2026-05-07 08:17 | 53.56243 | -2.15437 | 3680 ft | 183 kts | 275° |
| 2026-05-07 08:17 | 53.56730 | -2.17311 | 3934 ft | 174 kts | 311° |
| 2026-05-07 08:17 | 53.57637 | -2.18636 | 3945 ft | 174 kts | 323° |
| 2026-05-07 08:18 | 53.58638 | -2.19799 | 3931 ft | 175 kts | 326° |
| 2026-05-07 08:18 | 53.59677 | -2.20837 | 3920 ft | 176 kts | 336° |
| 2026-05-07 08:18 | 53.60881 | -2.21161 | 3918 ft | 178 kts | 6° |
| 2026-05-07 08:18 | 53.61973 | -2.20259 | 3920 ft | 178 kts | 47° |
| 2026-05-07 08:19 | 53.62409 | -2.18347 | 3927 ft | 178 kts | 91° |
| 2026-05-07 08:19 | 53.61925 | -2.16477 | 3936 ft | 177 kts | 136° |
| 2026-05-07 08:19 | 53.61004 | -2.15142 | 3883 ft | 178 kts | 137° |
| 2026-05-07 08:19 | 53.60183 | -2.13578 | 3831 ft | 178 kts | 130° |
| 2026-05-07 08:20 | 53.59372 | -2.11992 | 3788 ft | 178 kts | 132° |
| 2026-05-07 08:20 | 53.58522 | -2.10466 | 3718 ft | 178 kts | 135° |
| 2026-05-07 08:20 | 53.57636 | -2.09015 | 3636 ft | 177 kts | 137° |
| 2026-05-07 08:20 | 53.56741 | -2.07685 | 3571 ft | 166 kts | 140° |
| 2026-05-07 08:21 | 53.55875 | -2.06507 | 3467 ft | 159 kts | 143° |
| 2026-05-07 08:21 | 53.54979 | -2.05414 | 3429 ft | 159 kts | 146° |
| 2026-05-07 08:21 | 53.54037 | -2.04435 | 3425 ft | 159 kts | 151° |
| 2026-05-07 08:21 | 53.53043 | -2.03593 | 3424 ft | 159 kts | 156° |
| 2026-05-07 08:22 | 53.52047 | -2.02896 | 3427 ft | 151 kts | 158° |
| 2026-05-07 08:22 | 53.51133 | -2.02083 | 3429 ft | 147 kts | 149° |
| 2026-05-07 08:22 | 53.50253 | -2.01193 | 3390 ft | 148 kts | 151° |
| 2026-05-07 08:22 | 53.49305 | -2.00600 | 3317 ft | 148 kts | 171° |
| 2026-05-07 08:23 | 53.48302 | -2.00826 | 3244 ft | 147 kts | 206° |
| 2026-05-07 08:23 | 53.47554 | -2.01952 | 3193 ft | 145 kts | 234° |
| 2026-05-07 08:23 | 53.46980 | -2.03345 | 3134 ft | 143 kts | 236° |
| 2026-05-07 08:23 | 53.46407 | -2.04667 | 3024 ft | 138 kts | 233° |
| 2026-05-07 08:24 | 53.45820 | -2.05905 | 2933 ft | 134 kts | 231° |
| 2026-05-07 08:24 | 53.45226 | -2.07127 | 2934 ft | 137 kts | 231° |
| 2026-05-07 08:24 | 53.44625 | -2.08369 | 2869 ft | 139 kts | 231° |
| 2026-05-07 08:24 | 53.44030 | -2.09614 | 2716 ft | 137 kts | 231° |
| 2026-05-07 08:25 | 53.43428 | -2.10865 | 2505 ft | 137 kts | 231° |
| 2026-05-07 08:25 | 53.42827 | -2.12110 | 2341 ft | 138 kts | 231° |
| 2026-05-07 08:25 | 53.42224 | -2.13356 | 2147 ft | 135 kts | 231° |
| 2026-05-07 08:25 | 53.41633 | -2.14579 | 1981 ft | 134 kts | 231° |
| 2026-05-07 08:26 | 53.40465 | -2.16991 | 1622 ft | 133 kts | 231° |
| 2026-05-07 08:26 | 53.39890 | -2.18183 | 1443 ft | 133 kts | 231° |
| 2026-05-07 08:26 | 53.39306 | -2.19388 | 1266 ft | 133 kts | 231° |
| 2026-05-07 08:27 | 53.38724 | -2.20590 | 1090 ft | 132 kts | 231° |
| 2026-05-07 08:27 | 53.38142 | -2.21792 | 914 ft | 132 kts | 231° |
| 2026-05-07 08:27 | 53.37563 | -2.22987 | 739 ft | 132 kts | 231° |
| 2026-05-07 08:27 | 53.36987 | -2.24187 | 549 ft | 131 kts | 232° |
| 2026-05-07 08:28 | 53.36415 | -2.25357 | 395 ft | 132 kts | 231° |
| 2026-05-07 08:28 | 53.35834 | -2.26545 | 292 ft | 131 kts | 231° |
| 2026-05-07 08:28 | 53.35312 | -2.27626 | 255 ft | 86 kts | 231° |
| 2026-05-07 08:28 | 53.35078 | -2.28109 | 237 ft | 18 kts | 232° |
| 2026-05-07 08:29 | 53.35031 | -2.28218 | 238 ft | 13 kts | 232° |
| 2026-05-07 08:29 | 53.34984 | -2.28368 | 232 ft | 15 kts | 252° |
| 2026-05-07 08:29 | 53.34953 | -2.28555 | 229 ft | 19 kts | 257° |
| 2026-05-07 08:29 | 53.34948 | -2.28761 | 225 ft | 1 kts | 302° |
| 2026-05-07 08:30 | 53.34953 | -2.28766 | 225 ft | 1 kts | 320° |
| 2026-05-07 08:30 | 53.34960 | -2.28767 | 225 ft | 1 kts | 346° |
| 2026-05-07 08:30 | 53.34966 | -2.28765 | 226 ft | 1 kts | 5° |
| 2026-05-07 08:30 | 53.34982 | -2.28758 | 226 ft | 3 kts | 17° |
| 2026-05-07 08:31 | 53.35007 | -2.28736 | 227 ft | 5 kts | 31° |
| 2026-05-07 08:31 | 53.35036 | -2.28696 | 229 ft | 6 kts | 43° |
| 2026-05-07 08:31 | 53.35068 | -2.28638 | 230 ft | 7 kts | 49° |
| 2026-05-07 08:31 | 53.35103 | -2.28567 | 232 ft | 8 kts | 52° |
| 2026-05-07 08:32 | 53.35142 | -2.28485 | 239 ft | 10 kts | 51° |
| 2026-05-07 08:32 | 53.35186 | -2.28395 | 237 ft | 11 kts | 51° |
| 2026-05-07 08:32 | 53.35237 | -2.28297 | 240 ft | 12 kts | 46° |
| 2026-05-07 08:32 | 53.35306 | -2.28214 | 243 ft | 13 kts | 27° |
| 2026-05-07 08:33 | 53.35393 | -2.28168 | 246 ft | 14 kts | 10° |
| 2026-05-07 08:33 | 53.35490 | -2.28122 | 249 ft | 15 kts | 24° |
| 2026-05-07 08:33 | 53.35571 | -2.28009 | 253 ft | 15 kts | 49° |
| 2026-05-07 08:33 | 53.35649 | -2.27900 | 256 ft | 14 kts | 15° |
| 2026-05-07 08:34 | 53.35747 | -2.27876 | 260 ft | 14 kts | 6° |
| 2026-05-07 08:34 | 53.35853 | -2.27858 | 261 ft | 17 kts | 6° |
| 2026-05-07 08:34 | 53.35984 | -2.27835 | 261 ft | 21 kts | 6° |
| 2026-05-07 08:34 | 53.36108 | -2.27923 | 261 ft | 21 kts | 317° |
| 2026-05-07 08:35 | 53.36214 | -2.28100 | 261 ft | 21 kts | 314° |
| 2026-05-07 08:35 | 53.36301 | -2.28248 | 261 ft | 16 kts | 315° |
| 2026-05-07 08:35 | 53.36388 | -2.28393 | 261 ft | 19 kts | 315° |
| 2026-05-07 08:35 | 53.36470 | -2.28530 | 261 ft | 13 kts | 314° |
| 2026-05-07 08:36 | 53.36530 | -2.28632 | 261 ft | 8 kts | 314° |
| 2026-05-07 08:36 | 53.36570 | -2.28727 | 261 ft | 12 kts | 302° |
| 2026-05-07 08:36 | 53.36633 | -2.28758 | 261 ft | 7 kts | 20° |
| 2026-05-07 08:36 | 53.36671 | -2.28703 | 261 ft | 9 kts | 44° |
| 2026-05-07 08:37 | 53.36713 | -2.28689 | 261 ft | 5 kts | 339° |
| 2026-05-07 08:37 | 53.36736 | -2.28724 | 261 ft | 5 kts | 310° |
| 2026-05-07 08:37 | 53.36744 | -2.28740 | 261 ft | 2 kts | 313° |
| 2026-05-07 08:37 | 53.36749 | -2.28749 | 261 ft | 0 kts | 313° |